<?xml version="1.0" encoding="UTF-8" standalone="no" ?>
<gpx xmlns="http://www.topografix.com/GPX/1/1" xmlns:xsi="http://www.w3.org/2001/XMLSchema-instance" xsi:schemaLocation="http://www.topografix.com/GPX/1/1 http://www.topografix.com/GPX/1/1/gpx.xsd" version="1.1" creator="VisuGPX - https://www.visugpx.com">
  <metadata>
    <name>Clermont-le-Fort Course à pied</name>
  </metadata>
  <trk>
    <name><![CDATA[Clermont-le-Fort Course à pied]]></name>
    <trkseg>
      <trkpt lat="43.4577" lon="1.4266">
        <ele>158.60000610352</ele>
        <time>2021-09-29T17:55:52.000Z</time>
      </trkpt>
      <trkpt lat="43.45771" lon="1.42658">
        <ele>158.60000610352</ele>
        <time>2021-09-29T17:55:53.000Z</time>
      </trkpt>
      <trkpt lat="43.45775" lon="1.42649">
        <ele>157.80000305176</ele>
        <time>2021-09-29T17:55:57.000Z</time>
      </trkpt>
      <trkpt lat="43.45777" lon="1.42643">
        <ele>157.60000610352</ele>
        <time>2021-09-29T17:55:59.000Z</time>
      </trkpt>
      <trkpt lat="43.45779" lon="1.42638">
        <ele>157.19999694824</ele>
        <time>2021-09-29T17:56:01.000Z</time>
      </trkpt>
      <trkpt lat="43.4578" lon="1.42635">
        <ele>157</ele>
        <time>2021-09-29T17:56:02.000Z</time>
      </trkpt>
      <trkpt lat="43.45781" lon="1.42629">
        <ele>156.80000305176</ele>
        <time>2021-09-29T17:56:04.000Z</time>
      </trkpt>
      <trkpt lat="43.45781" lon="1.42626">
        <ele>156.60000610352</ele>
        <time>2021-09-29T17:56:05.000Z</time>
      </trkpt>
      <trkpt lat="43.45782" lon="1.42613">
        <ele>155.80000305176</ele>
        <time>2021-09-29T17:56:09.000Z</time>
      </trkpt>
      <trkpt lat="43.45782" lon="1.42608">
        <ele>155.60000610352</ele>
        <time>2021-09-29T17:56:11.000Z</time>
      </trkpt>
      <trkpt lat="43.45783" lon="1.42606">
        <ele>155.60000610352</ele>
        <time>2021-09-29T17:56:12.000Z</time>
      </trkpt>
      <trkpt lat="43.45786" lon="1.42601">
        <ele>155.60000610352</ele>
        <time>2021-09-29T17:56:13.000Z</time>
      </trkpt>
      <trkpt lat="43.45786" lon="1.42601">
        <ele>155.60000610352</ele>
        <time>2021-09-29T17:56:14.000Z</time>
      </trkpt>
      <trkpt lat="43.45788" lon="1.42598">
        <ele>155.80000305176</ele>
        <time>2021-09-29T17:56:15.000Z</time>
      </trkpt>
      <trkpt lat="43.45791" lon="1.42593">
        <ele>156</ele>
        <time>2021-09-29T17:56:17.000Z</time>
      </trkpt>
      <trkpt lat="43.45793" lon="1.42589">
        <ele>156</ele>
        <time>2021-09-29T17:56:18.000Z</time>
      </trkpt>
      <trkpt lat="43.45794" lon="1.42587">
        <ele>156</ele>
        <time>2021-09-29T17:56:19.000Z</time>
      </trkpt>
      <trkpt lat="43.45801" lon="1.42567">
        <ele>157.19999694824</ele>
        <time>2021-09-29T17:56:25.000Z</time>
      </trkpt>
      <trkpt lat="43.45804" lon="1.42558">
        <ele>157.80000305176</ele>
        <time>2021-09-29T17:56:28.000Z</time>
      </trkpt>
      <trkpt lat="43.45807" lon="1.4255">
        <ele>158.19999694824</ele>
        <time>2021-09-29T17:56:30.000Z</time>
      </trkpt>
      <trkpt lat="43.45817" lon="1.42526">
        <ele>159.39999389648</ele>
        <time>2021-09-29T17:56:37.000Z</time>
      </trkpt>
      <trkpt lat="43.45818" lon="1.42523">
        <ele>159.60000610352</ele>
        <time>2021-09-29T17:56:38.000Z</time>
      </trkpt>
      <trkpt lat="43.4582" lon="1.42515">
        <ele>160</ele>
        <time>2021-09-29T17:56:40.000Z</time>
      </trkpt>
      <trkpt lat="43.45823" lon="1.42502">
        <ele>159.39999389648</ele>
        <time>2021-09-29T17:56:44.000Z</time>
      </trkpt>
      <trkpt lat="43.45828" lon="1.42484">
        <ele>159.19999694824</ele>
        <time>2021-09-29T17:56:49.000Z</time>
      </trkpt>
      <trkpt lat="43.45833" lon="1.42469">
        <ele>159</ele>
        <time>2021-09-29T17:56:54.000Z</time>
      </trkpt>
      <trkpt lat="43.45834" lon="1.42466">
        <ele>159</ele>
        <time>2021-09-29T17:56:55.000Z</time>
      </trkpt>
      <trkpt lat="43.45842" lon="1.42443">
        <ele>158.39999389648</ele>
        <time>2021-09-29T17:57:02.000Z</time>
      </trkpt>
      <trkpt lat="43.45845" lon="1.42429">
        <ele>159</ele>
        <time>2021-09-29T17:57:06.000Z</time>
      </trkpt>
      <trkpt lat="43.45846" lon="1.42421">
        <ele>159.19999694824</ele>
        <time>2021-09-29T17:57:08.000Z</time>
      </trkpt>
      <trkpt lat="43.45847" lon="1.42418">
        <ele>159.39999389648</ele>
        <time>2021-09-29T17:57:09.000Z</time>
      </trkpt>
      <trkpt lat="43.45849" lon="1.42411">
        <ele>159.60000610352</ele>
        <time>2021-09-29T17:57:11.000Z</time>
      </trkpt>
      <trkpt lat="43.45851" lon="1.42393">
        <ele>160.19999694824</ele>
        <time>2021-09-29T17:57:15.000Z</time>
      </trkpt>
      <trkpt lat="43.45855" lon="1.42366">
        <ele>160.60000610352</ele>
        <time>2021-09-29T17:57:22.000Z</time>
      </trkpt>
      <trkpt lat="43.45859" lon="1.42341">
        <ele>160.19999694824</ele>
        <time>2021-09-29T17:57:28.000Z</time>
      </trkpt>
      <trkpt lat="43.45863" lon="1.42313">
        <ele>159.19999694824</ele>
        <time>2021-09-29T17:57:35.000Z</time>
      </trkpt>
      <trkpt lat="43.45866" lon="1.42287">
        <ele>160.19999694824</ele>
        <time>2021-09-29T17:57:42.000Z</time>
      </trkpt>
      <trkpt lat="43.45872" lon="1.42262">
        <ele>160.19999694824</ele>
        <time>2021-09-29T17:57:50.000Z</time>
      </trkpt>
      <trkpt lat="43.45876" lon="1.42237">
        <ele>159.39999389648</ele>
        <time>2021-09-29T17:57:57.000Z</time>
      </trkpt>
      <trkpt lat="43.45882" lon="1.42214">
        <ele>158.19999694824</ele>
        <time>2021-09-29T17:58:04.000Z</time>
      </trkpt>
      <trkpt lat="43.45886" lon="1.42188">
        <ele>156.80000305176</ele>
        <time>2021-09-29T17:58:11.000Z</time>
      </trkpt>
      <trkpt lat="43.4589" lon="1.42161">
        <ele>156</ele>
        <time>2021-09-29T17:58:18.000Z</time>
      </trkpt>
      <trkpt lat="43.45898" lon="1.42137">
        <ele>156.60000610352</ele>
        <time>2021-09-29T17:58:24.000Z</time>
      </trkpt>
      <trkpt lat="43.4591" lon="1.42115">
        <ele>156.80000305176</ele>
        <time>2021-09-29T17:58:31.000Z</time>
      </trkpt>
      <trkpt lat="43.45917" lon="1.42091">
        <ele>157.60000610352</ele>
        <time>2021-09-29T17:58:38.000Z</time>
      </trkpt>
      <trkpt lat="43.45932" lon="1.42077">
        <ele>158</ele>
        <time>2021-09-29T17:58:44.000Z</time>
      </trkpt>
      <trkpt lat="43.45952" lon="1.4207">
        <ele>157.39999389648</ele>
        <time>2021-09-29T17:58:51.000Z</time>
      </trkpt>
      <trkpt lat="43.4597" lon="1.4206">
        <ele>155.39999389648</ele>
        <time>2021-09-29T17:58:58.000Z</time>
      </trkpt>
      <trkpt lat="43.45985" lon="1.42044">
        <ele>154.60000610352</ele>
        <time>2021-09-29T17:59:05.000Z</time>
      </trkpt>
      <trkpt lat="43.46003" lon="1.42034">
        <ele>153.19999694824</ele>
        <time>2021-09-29T17:59:12.000Z</time>
      </trkpt>
      <trkpt lat="43.46021" lon="1.42021">
        <ele>154.19999694824</ele>
        <time>2021-09-29T17:59:19.000Z</time>
      </trkpt>
      <trkpt lat="43.46034" lon="1.42004">
        <ele>154.19999694824</ele>
        <time>2021-09-29T17:59:26.000Z</time>
      </trkpt>
      <trkpt lat="43.46033" lon="1.42001">
        <ele>154.19999694824</ele>
        <time>2021-09-29T17:59:27.000Z</time>
      </trkpt>
      <trkpt lat="43.46023" lon="1.41983">
        <ele>155.19999694824</ele>
        <time>2021-09-29T17:59:33.000Z</time>
      </trkpt>
      <trkpt lat="43.46022" lon="1.4198">
        <ele>155.39999389648</ele>
        <time>2021-09-29T17:59:36.000Z</time>
      </trkpt>
      <trkpt lat="43.46022" lon="1.41978">
        <ele>155.60000610352</ele>
        <time>2021-09-29T17:59:38.000Z</time>
      </trkpt>
      <trkpt lat="43.46022" lon="1.41975">
        <ele>155.80000305176</ele>
        <time>2021-09-29T17:59:40.000Z</time>
      </trkpt>
      <trkpt lat="43.46026" lon="1.41981">
        <ele>155.19999694824</ele>
        <time>2021-09-29T17:59:52.000Z</time>
      </trkpt>
      <trkpt lat="43.46034" lon="1.42003">
        <ele>154.19999694824</ele>
        <time>2021-09-29T17:59:59.000Z</time>
      </trkpt>
      <trkpt lat="43.46041" lon="1.42025">
        <ele>154.60000610352</ele>
        <time>2021-09-29T18:00:05.000Z</time>
      </trkpt>
      <trkpt lat="43.46049" lon="1.42052">
        <ele>154.80000305176</ele>
        <time>2021-09-29T18:00:12.000Z</time>
      </trkpt>
      <trkpt lat="43.46057" lon="1.42078">
        <ele>156</ele>
        <time>2021-09-29T18:00:19.000Z</time>
      </trkpt>
      <trkpt lat="43.46063" lon="1.42097">
        <ele>156.60000610352</ele>
        <time>2021-09-29T18:00:24.000Z</time>
      </trkpt>
      <trkpt lat="43.46068" lon="1.42108">
        <ele>157</ele>
        <time>2021-09-29T18:00:27.000Z</time>
      </trkpt>
      <trkpt lat="43.46076" lon="1.42133">
        <ele>158.60000610352</ele>
        <time>2021-09-29T18:00:34.000Z</time>
      </trkpt>
      <trkpt lat="43.46084" lon="1.42157">
        <ele>160.39999389648</ele>
        <time>2021-09-29T18:00:41.000Z</time>
      </trkpt>
      <trkpt lat="43.46082" lon="1.42164">
        <ele>161</ele>
        <time>2021-09-29T18:00:48.000Z</time>
      </trkpt>
      <trkpt lat="43.46072" lon="1.42143">
        <ele>159.19999694824</ele>
        <time>2021-09-29T18:00:57.000Z</time>
      </trkpt>
      <trkpt lat="43.46071" lon="1.42141">
        <ele>158.80000305176</ele>
        <time>2021-09-29T18:01:00.000Z</time>
      </trkpt>
      <trkpt lat="43.46069" lon="1.42139">
        <ele>158.60000610352</ele>
        <time>2021-09-29T18:01:02.000Z</time>
      </trkpt>
      <trkpt lat="43.46067" lon="1.42136">
        <ele>158.39999389648</ele>
        <time>2021-09-29T18:01:05.000Z</time>
      </trkpt>
      <trkpt lat="43.46052" lon="1.42119">
        <ele>156.80000305176</ele>
        <time>2021-09-29T18:01:15.000Z</time>
      </trkpt>
      <trkpt lat="43.46044" lon="1.42111">
        <ele>156.19999694824</ele>
        <time>2021-09-29T18:01:29.000Z</time>
      </trkpt>
      <trkpt lat="43.46044" lon="1.42111">
        <ele>156.19999694824</ele>
        <time>2021-09-29T18:01:35.000Z</time>
      </trkpt>
      <trkpt lat="43.46045" lon="1.42111">
        <ele>156.19999694824</ele>
        <time>2021-09-29T18:01:41.000Z</time>
      </trkpt>
      <trkpt lat="43.46046" lon="1.42111">
        <ele>156.19999694824</ele>
        <time>2021-09-29T18:01:53.000Z</time>
      </trkpt>
      <trkpt lat="43.46045" lon="1.4211">
        <ele>156.19999694824</ele>
        <time>2021-09-29T18:01:58.000Z</time>
      </trkpt>
      <trkpt lat="43.46045" lon="1.4211">
        <ele>156</ele>
        <time>2021-09-29T18:01:59.000Z</time>
      </trkpt>
      <trkpt lat="43.46044" lon="1.4211">
        <ele>156</ele>
        <time>2021-09-29T18:02:02.000Z</time>
      </trkpt>
      <trkpt lat="43.46044" lon="1.4211">
        <ele>156</ele>
        <time>2021-09-29T18:02:03.000Z</time>
      </trkpt>
      <trkpt lat="43.46043" lon="1.4211">
        <ele>156.19999694824</ele>
        <time>2021-09-29T18:02:04.000Z</time>
      </trkpt>
      <trkpt lat="43.4604" lon="1.42113">
        <ele>156.39999389648</ele>
        <time>2021-09-29T18:02:09.000Z</time>
      </trkpt>
      <trkpt lat="43.4604" lon="1.42113">
        <ele>156.39999389648</ele>
        <time>2021-09-29T18:02:10.000Z</time>
      </trkpt>
      <trkpt lat="43.46037" lon="1.42114">
        <ele>156.39999389648</ele>
        <time>2021-09-29T18:02:13.000Z</time>
      </trkpt>
      <trkpt lat="43.46033" lon="1.42117">
        <ele>156.60000610352</ele>
        <time>2021-09-29T18:02:18.000Z</time>
      </trkpt>
      <trkpt lat="43.46031" lon="1.42119">
        <ele>156.60000610352</ele>
        <time>2021-09-29T18:02:19.000Z</time>
      </trkpt>
      <trkpt lat="43.4603" lon="1.4212">
        <ele>156.80000305176</ele>
        <time>2021-09-29T18:02:20.000Z</time>
      </trkpt>
      <trkpt lat="43.46024" lon="1.42125">
        <ele>157.19999694824</ele>
        <time>2021-09-29T18:02:23.000Z</time>
      </trkpt>
      <trkpt lat="43.46018" lon="1.4213">
        <ele>157.60000610352</ele>
        <time>2021-09-29T18:02:26.000Z</time>
      </trkpt>
      <trkpt lat="43.46011" lon="1.42142">
        <ele>158</ele>
        <time>2021-09-29T18:02:30.000Z</time>
      </trkpt>
      <trkpt lat="43.46001" lon="1.42158">
        <ele>158</ele>
        <time>2021-09-29T18:02:35.000Z</time>
      </trkpt>
      <trkpt lat="43.45999" lon="1.42161">
        <ele>158</ele>
        <time>2021-09-29T18:02:36.000Z</time>
      </trkpt>
      <trkpt lat="43.45996" lon="1.42164">
        <ele>157.80000305176</ele>
        <time>2021-09-29T18:02:37.000Z</time>
      </trkpt>
      <trkpt lat="43.45989" lon="1.42176">
        <ele>158</ele>
        <time>2021-09-29T18:02:40.000Z</time>
      </trkpt>
      <trkpt lat="43.4598" lon="1.42198">
        <ele>157.80000305176</ele>
        <time>2021-09-29T18:02:46.000Z</time>
      </trkpt>
      <trkpt lat="43.45974" lon="1.42208">
        <ele>157.39999389648</ele>
        <time>2021-09-29T18:02:49.000Z</time>
      </trkpt>
      <trkpt lat="43.45967" lon="1.42227">
        <ele>156.80000305176</ele>
        <time>2021-09-29T18:02:54.000Z</time>
      </trkpt>
      <trkpt lat="43.45966" lon="1.42231">
        <ele>156.80000305176</ele>
        <time>2021-09-29T18:02:55.000Z</time>
      </trkpt>
      <trkpt lat="43.45965" lon="1.42235">
        <ele>157</ele>
        <time>2021-09-29T18:02:56.000Z</time>
      </trkpt>
      <trkpt lat="43.45965" lon="1.42239">
        <ele>157</ele>
        <time>2021-09-29T18:02:57.000Z</time>
      </trkpt>
      <trkpt lat="43.45964" lon="1.42243">
        <ele>157.19999694824</ele>
        <time>2021-09-29T18:02:58.000Z</time>
      </trkpt>
      <trkpt lat="43.45961" lon="1.42254">
        <ele>157.60000610352</ele>
        <time>2021-09-29T18:03:01.000Z</time>
      </trkpt>
      <trkpt lat="43.45959" lon="1.42277">
        <ele>158.19999694824</ele>
        <time>2021-09-29T18:03:07.000Z</time>
      </trkpt>
      <trkpt lat="43.45958" lon="1.42281">
        <ele>158</ele>
        <time>2021-09-29T18:03:08.000Z</time>
      </trkpt>
      <trkpt lat="43.45955" lon="1.42306">
        <ele>158.39999389648</ele>
        <time>2021-09-29T18:03:14.000Z</time>
      </trkpt>
      <trkpt lat="43.45948" lon="1.42329">
        <ele>158.19999694824</ele>
        <time>2021-09-29T18:03:21.000Z</time>
      </trkpt>
      <trkpt lat="43.45939" lon="1.42355">
        <ele>158.19999694824</ele>
        <time>2021-09-29T18:03:28.000Z</time>
      </trkpt>
      <trkpt lat="43.45942" lon="1.42382">
        <ele>158</ele>
        <time>2021-09-29T18:03:35.000Z</time>
      </trkpt>
      <trkpt lat="43.45943" lon="1.42388">
        <ele>158</ele>
        <time>2021-09-29T18:03:36.000Z</time>
      </trkpt>
      <trkpt lat="43.45942" lon="1.42391">
        <ele>157.80000305176</ele>
        <time>2021-09-29T18:03:38.000Z</time>
      </trkpt>
      <trkpt lat="43.4594" lon="1.42395">
        <ele>157.80000305176</ele>
        <time>2021-09-29T18:03:40.000Z</time>
      </trkpt>
      <trkpt lat="43.45931" lon="1.42418">
        <ele>157.39999389648</ele>
        <time>2021-09-29T18:03:48.000Z</time>
      </trkpt>
      <trkpt lat="43.45929" lon="1.4244">
        <ele>156.60000610352</ele>
        <time>2021-09-29T18:03:54.000Z</time>
      </trkpt>
      <trkpt lat="43.4593" lon="1.42453">
        <ele>156.39999389648</ele>
        <time>2021-09-29T18:03:58.000Z</time>
      </trkpt>
      <trkpt lat="43.45925" lon="1.42479">
        <ele>157</ele>
        <time>2021-09-29T18:04:06.000Z</time>
      </trkpt>
      <trkpt lat="43.45924" lon="1.42501">
        <ele>157.19999694824</ele>
        <time>2021-09-29T18:04:12.000Z</time>
      </trkpt>
      <trkpt lat="43.45919" lon="1.42525">
        <ele>158</ele>
        <time>2021-09-29T18:04:20.000Z</time>
      </trkpt>
      <trkpt lat="43.45911" lon="1.42548">
        <ele>158.39999389648</ele>
        <time>2021-09-29T18:04:27.000Z</time>
      </trkpt>
      <trkpt lat="43.45895" lon="1.42558">
        <ele>159.60000610352</ele>
        <time>2021-09-29T18:04:34.000Z</time>
      </trkpt>
      <trkpt lat="43.4588" lon="1.42571">
        <ele>160.60000610352</ele>
        <time>2021-09-29T18:04:41.000Z</time>
      </trkpt>
      <trkpt lat="43.45872" lon="1.42594">
        <ele>161.19999694824</ele>
        <time>2021-09-29T18:04:48.000Z</time>
      </trkpt>
      <trkpt lat="43.45865" lon="1.4262">
        <ele>162.39999389648</ele>
        <time>2021-09-29T18:04:57.000Z</time>
      </trkpt>
      <trkpt lat="43.45858" lon="1.42647">
        <ele>163</ele>
        <time>2021-09-29T18:05:05.000Z</time>
      </trkpt>
      <trkpt lat="43.4585" lon="1.42672">
        <ele>163</ele>
        <time>2021-09-29T18:05:12.000Z</time>
      </trkpt>
      <trkpt lat="43.45844" lon="1.427">
        <ele>163.19999694824</ele>
        <time>2021-09-29T18:05:19.000Z</time>
      </trkpt>
      <trkpt lat="43.45838" lon="1.42724">
        <ele>164.60000610352</ele>
        <time>2021-09-29T18:05:26.000Z</time>
      </trkpt>
      <trkpt lat="43.45832" lon="1.42748">
        <ele>165</ele>
        <time>2021-09-29T18:05:33.000Z</time>
      </trkpt>
      <trkpt lat="43.45826" lon="1.42771">
        <ele>164.80000305176</ele>
        <time>2021-09-29T18:05:41.000Z</time>
      </trkpt>
      <trkpt lat="43.45814" lon="1.42793">
        <ele>164</ele>
        <time>2021-09-29T18:05:49.000Z</time>
      </trkpt>
      <trkpt lat="43.45803" lon="1.42815">
        <ele>163.60000610352</ele>
        <time>2021-09-29T18:05:55.000Z</time>
      </trkpt>
      <trkpt lat="43.4579" lon="1.42834">
        <ele>163.80000305176</ele>
        <time>2021-09-29T18:06:02.000Z</time>
      </trkpt>
      <trkpt lat="43.45778" lon="1.42855">
        <ele>164.80000305176</ele>
        <time>2021-09-29T18:06:10.000Z</time>
      </trkpt>
      <trkpt lat="43.45771" lon="1.42881">
        <ele>166.39999389648</ele>
        <time>2021-09-29T18:06:18.000Z</time>
      </trkpt>
      <trkpt lat="43.45769" lon="1.42902">
        <ele>167.80000305176</ele>
        <time>2021-09-29T18:06:24.000Z</time>
      </trkpt>
      <trkpt lat="43.4576" lon="1.42924">
        <ele>168.60000610352</ele>
        <time>2021-09-29T18:06:31.000Z</time>
      </trkpt>
      <trkpt lat="43.45755" lon="1.42951">
        <ele>170.19999694824</ele>
        <time>2021-09-29T18:06:39.000Z</time>
      </trkpt>
      <trkpt lat="43.45755" lon="1.42969">
        <ele>170.80000305176</ele>
        <time>2021-09-29T18:06:46.000Z</time>
      </trkpt>
      <trkpt lat="43.45749" lon="1.42992">
        <ele>170</ele>
        <time>2021-09-29T18:06:55.000Z</time>
      </trkpt>
      <trkpt lat="43.45748" lon="1.43018">
        <ele>170.60000610352</ele>
        <time>2021-09-29T18:07:03.000Z</time>
      </trkpt>
      <trkpt lat="43.45746" lon="1.43043">
        <ele>172</ele>
        <time>2021-09-29T18:07:10.000Z</time>
      </trkpt>
      <trkpt lat="43.4574" lon="1.43069">
        <ele>174.19999694824</ele>
        <time>2021-09-29T18:07:18.000Z</time>
      </trkpt>
      <trkpt lat="43.45728" lon="1.4309">
        <ele>175.60000610352</ele>
        <time>2021-09-29T18:07:25.000Z</time>
      </trkpt>
      <trkpt lat="43.45716" lon="1.43111">
        <ele>175.80000305176</ele>
        <time>2021-09-29T18:07:32.000Z</time>
      </trkpt>
      <trkpt lat="43.45703" lon="1.43127">
        <ele>174.19999694824</ele>
        <time>2021-09-29T18:07:42.000Z</time>
      </trkpt>
      <trkpt lat="43.45706" lon="1.43131">
        <ele>175.80000305176</ele>
        <time>2021-09-29T18:08:07.000Z</time>
      </trkpt>
      <trkpt lat="43.45708" lon="1.43135">
        <ele>177</ele>
        <time>2021-09-29T18:08:10.000Z</time>
      </trkpt>
      <trkpt lat="43.45709" lon="1.43135">
        <ele>177.60000610352</ele>
        <time>2021-09-29T18:08:12.000Z</time>
      </trkpt>
      <trkpt lat="43.45709" lon="1.43138">
        <ele>178</ele>
        <time>2021-09-29T18:08:17.000Z</time>
      </trkpt>
      <trkpt lat="43.45709" lon="1.43141">
        <ele>178.60000610352</ele>
        <time>2021-09-29T18:08:21.000Z</time>
      </trkpt>
      <trkpt lat="43.45708" lon="1.43146">
        <ele>179.19999694824</ele>
        <time>2021-09-29T18:08:25.000Z</time>
      </trkpt>
      <trkpt lat="43.45706" lon="1.43149">
        <ele>179.39999389648</ele>
        <time>2021-09-29T18:08:29.000Z</time>
      </trkpt>
      <trkpt lat="43.45706" lon="1.4315">
        <ele>179.60000610352</ele>
        <time>2021-09-29T18:08:30.000Z</time>
      </trkpt>
      <trkpt lat="43.45705" lon="1.43152">
        <ele>179.19999694824</ele>
        <time>2021-09-29T18:08:33.000Z</time>
      </trkpt>
      <trkpt lat="43.45704" lon="1.43152">
        <ele>178.80000305176</ele>
        <time>2021-09-29T18:08:34.000Z</time>
      </trkpt>
      <trkpt lat="43.45701" lon="1.43154">
        <ele>178.19999694824</ele>
        <time>2021-09-29T18:08:35.000Z</time>
      </trkpt>
      <trkpt lat="43.45701" lon="1.43154">
        <ele>178.19999694824</ele>
        <time>2021-09-29T18:08:36.000Z</time>
      </trkpt>
      <trkpt lat="43.45698" lon="1.43158">
        <ele>177.60000610352</ele>
        <time>2021-09-29T18:08:42.000Z</time>
      </trkpt>
      <trkpt lat="43.45701" lon="1.43153">
        <ele>178</ele>
        <time>2021-09-29T18:08:46.000Z</time>
      </trkpt>
      <trkpt lat="43.45703" lon="1.43154">
        <ele>178.80000305176</ele>
        <time>2021-09-29T18:08:48.000Z</time>
      </trkpt>
      <trkpt lat="43.45701" lon="1.43161">
        <ele>179.19999694824</ele>
        <time>2021-09-29T18:08:52.000Z</time>
      </trkpt>
      <trkpt lat="43.45699" lon="1.43162">
        <ele>178.80000305176</ele>
        <time>2021-09-29T18:08:53.000Z</time>
      </trkpt>
      <trkpt lat="43.45696" lon="1.43166">
        <ele>178.80000305176</ele>
        <time>2021-09-29T18:08:54.000Z</time>
      </trkpt>
      <trkpt lat="43.45696" lon="1.43168">
        <ele>179.19999694824</ele>
        <time>2021-09-29T18:08:56.000Z</time>
      </trkpt>
      <trkpt lat="43.45693" lon="1.43171">
        <ele>178.60000610352</ele>
        <time>2021-09-29T18:08:57.000Z</time>
      </trkpt>
      <trkpt lat="43.45687" lon="1.43176">
        <ele>177.80000305176</ele>
        <time>2021-09-29T18:09:01.000Z</time>
      </trkpt>
      <trkpt lat="43.45685" lon="1.43181">
        <ele>178.60000610352</ele>
        <time>2021-09-29T18:09:03.000Z</time>
      </trkpt>
      <trkpt lat="43.45686" lon="1.43188">
        <ele>180.80000305176</ele>
        <time>2021-09-29T18:09:06.000Z</time>
      </trkpt>
      <trkpt lat="43.45686" lon="1.43191">
        <ele>181.60000610352</ele>
        <time>2021-09-29T18:09:08.000Z</time>
      </trkpt>
      <trkpt lat="43.45686" lon="1.43192">
        <ele>181.80000305176</ele>
        <time>2021-09-29T18:09:09.000Z</time>
      </trkpt>
      <trkpt lat="43.45686" lon="1.43195">
        <ele>183.19999694824</ele>
        <time>2021-09-29T18:09:12.000Z</time>
      </trkpt>
      <trkpt lat="43.45688" lon="1.43197">
        <ele>184.19999694824</ele>
        <time>2021-09-29T18:09:14.000Z</time>
      </trkpt>
      <trkpt lat="43.4569" lon="1.43199">
        <ele>186</ele>
        <time>2021-09-29T18:09:16.000Z</time>
      </trkpt>
      <trkpt lat="43.45691" lon="1.432">
        <ele>187</ele>
        <time>2021-09-29T18:09:17.000Z</time>
      </trkpt>
      <trkpt lat="43.45691" lon="1.432">
        <ele>187</ele>
        <time>2021-09-29T18:09:18.000Z</time>
      </trkpt>
      <trkpt lat="43.45693" lon="1.432">
        <ele>187.60000610352</ele>
        <time>2021-09-29T18:09:20.000Z</time>
      </trkpt>
      <trkpt lat="43.45695" lon="1.43201">
        <ele>189.19999694824</ele>
        <time>2021-09-29T18:09:24.000Z</time>
      </trkpt>
      <trkpt lat="43.45696" lon="1.43202">
        <ele>189.80000305176</ele>
        <time>2021-09-29T18:09:25.000Z</time>
      </trkpt>
      <trkpt lat="43.45697" lon="1.43202">
        <ele>190.39999389648</ele>
        <time>2021-09-29T18:09:26.000Z</time>
      </trkpt>
      <trkpt lat="43.45698" lon="1.43202">
        <ele>190.80000305176</ele>
        <time>2021-09-29T18:09:27.000Z</time>
      </trkpt>
      <trkpt lat="43.45699" lon="1.43202">
        <ele>191.19999694824</ele>
        <time>2021-09-29T18:09:28.000Z</time>
      </trkpt>
      <trkpt lat="43.45701" lon="1.43201">
        <ele>192.19999694824</ele>
        <time>2021-09-29T18:09:30.000Z</time>
      </trkpt>
      <trkpt lat="43.45717" lon="1.43188">
        <ele>196.60000610352</ele>
        <time>2021-09-29T18:09:42.000Z</time>
      </trkpt>
      <trkpt lat="43.45721" lon="1.43183">
        <ele>196.19999694824</ele>
        <time>2021-09-29T18:09:45.000Z</time>
      </trkpt>
      <trkpt lat="43.45723" lon="1.43181">
        <ele>196</ele>
        <time>2021-09-29T18:09:47.000Z</time>
      </trkpt>
      <trkpt lat="43.4573" lon="1.43173">
        <ele>195.60000610352</ele>
        <time>2021-09-29T18:09:54.000Z</time>
      </trkpt>
      <trkpt lat="43.45732" lon="1.4317">
        <ele>195.39999389648</ele>
        <time>2021-09-29T18:09:56.000Z</time>
      </trkpt>
      <trkpt lat="43.45737" lon="1.43162">
        <ele>194.60000610352</ele>
        <time>2021-09-29T18:10:02.000Z</time>
      </trkpt>
      <trkpt lat="43.45739" lon="1.43163">
        <ele>195.60000610352</ele>
        <time>2021-09-29T18:10:03.000Z</time>
      </trkpt>
      <trkpt lat="43.4574" lon="1.43164">
        <ele>196.19999694824</ele>
        <time>2021-09-29T18:10:05.000Z</time>
      </trkpt>
      <trkpt lat="43.45739" lon="1.43172">
        <ele>198.80000305176</ele>
        <time>2021-09-29T18:10:08.000Z</time>
      </trkpt>
      <trkpt lat="43.45736" lon="1.4318">
        <ele>201.19999694824</ele>
        <time>2021-09-29T18:10:11.000Z</time>
      </trkpt>
      <trkpt lat="43.45734" lon="1.43192">
        <ele>204.60000610352</ele>
        <time>2021-09-29T18:10:15.000Z</time>
      </trkpt>
      <trkpt lat="43.45732" lon="1.43203">
        <ele>207.60000610352</ele>
        <time>2021-09-29T18:10:20.000Z</time>
      </trkpt>
      <trkpt lat="43.45731" lon="1.43206">
        <ele>208.39999389648</ele>
        <time>2021-09-29T18:10:22.000Z</time>
      </trkpt>
      <trkpt lat="43.45731" lon="1.43208">
        <ele>208.80000305176</ele>
        <time>2021-09-29T18:10:23.000Z</time>
      </trkpt>
      <trkpt lat="43.4573" lon="1.4321">
        <ele>209.19999694824</ele>
        <time>2021-09-29T18:10:24.000Z</time>
      </trkpt>
      <trkpt lat="43.45729" lon="1.43213">
        <ele>209.80000305176</ele>
        <time>2021-09-29T18:10:26.000Z</time>
      </trkpt>
      <trkpt lat="43.45721" lon="1.43231">
        <ele>210.80000305176</ele>
        <time>2021-09-29T18:10:37.000Z</time>
      </trkpt>
      <trkpt lat="43.45715" lon="1.43236">
        <ele>209</ele>
        <time>2021-09-29T18:10:41.000Z</time>
      </trkpt>
      <trkpt lat="43.45703" lon="1.43243">
        <ele>203.80000305176</ele>
        <time>2021-09-29T18:10:47.000Z</time>
      </trkpt>
      <trkpt lat="43.45701" lon="1.43244">
        <ele>203</ele>
        <time>2021-09-29T18:10:48.000Z</time>
      </trkpt>
      <trkpt lat="43.45697" lon="1.43246">
        <ele>201.19999694824</ele>
        <time>2021-09-29T18:10:53.000Z</time>
      </trkpt>
      <trkpt lat="43.457" lon="1.43242">
        <ele>202.19999694824</ele>
        <time>2021-09-29T18:11:04.000Z</time>
      </trkpt>
      <trkpt lat="43.45717" lon="1.43233">
        <ele>209</ele>
        <time>2021-09-29T18:11:14.000Z</time>
      </trkpt>
      <trkpt lat="43.45726" lon="1.43212">
        <ele>208</ele>
        <time>2021-09-29T18:11:25.000Z</time>
      </trkpt>
      <trkpt lat="43.45732" lon="1.43186">
        <ele>201.80000305176</ele>
        <time>2021-09-29T18:11:33.000Z</time>
      </trkpt>
      <trkpt lat="43.45737" lon="1.43166">
        <ele>195.80000305176</ele>
        <time>2021-09-29T18:11:40.000Z</time>
      </trkpt>
      <trkpt lat="43.45738" lon="1.4317">
        <ele>197.80000305176</ele>
        <time>2021-09-29T18:11:43.000Z</time>
      </trkpt>
      <trkpt lat="43.45733" lon="1.43195">
        <ele>205.39999389648</ele>
        <time>2021-09-29T18:11:52.000Z</time>
      </trkpt>
      <trkpt lat="43.45727" lon="1.43218">
        <ele>210.80000305176</ele>
        <time>2021-09-29T18:12:04.000Z</time>
      </trkpt>
      <trkpt lat="43.45715" lon="1.43238">
        <ele>209</ele>
        <time>2021-09-29T18:12:16.000Z</time>
      </trkpt>
      <trkpt lat="43.45701" lon="1.43246">
        <ele>203.39999389648</ele>
        <time>2021-09-29T18:12:22.000Z</time>
      </trkpt>
      <trkpt lat="43.45699" lon="1.43247">
        <ele>202.60000610352</ele>
        <time>2021-09-29T18:12:25.000Z</time>
      </trkpt>
      <trkpt lat="43.45697" lon="1.43249">
        <ele>202</ele>
        <time>2021-09-29T18:12:29.000Z</time>
      </trkpt>
      <trkpt lat="43.45696" lon="1.4325">
        <ele>201.60000610352</ele>
        <time>2021-09-29T18:12:35.000Z</time>
      </trkpt>
      <trkpt lat="43.45696" lon="1.4325">
        <ele>201.60000610352</ele>
        <time>2021-09-29T18:12:38.000Z</time>
      </trkpt>
      <trkpt lat="43.45688" lon="1.43251">
        <ele>199</ele>
        <time>2021-09-29T18:12:42.000Z</time>
      </trkpt>
      <trkpt lat="43.45671" lon="1.43259">
        <ele>195.39999389648</ele>
        <time>2021-09-29T18:12:48.000Z</time>
      </trkpt>
      <trkpt lat="43.45652" lon="1.43272">
        <ele>191.19999694824</ele>
        <time>2021-09-29T18:12:54.000Z</time>
      </trkpt>
      <trkpt lat="43.45631" lon="1.43282">
        <ele>186</ele>
        <time>2021-09-29T18:13:00.000Z</time>
      </trkpt>
      <trkpt lat="43.4561" lon="1.43285">
        <ele>181.19999694824</ele>
        <time>2021-09-29T18:13:07.000Z</time>
      </trkpt>
      <trkpt lat="43.45592" lon="1.43297">
        <ele>176.39999389648</ele>
        <time>2021-09-29T18:13:14.000Z</time>
      </trkpt>
      <trkpt lat="43.45574" lon="1.43309">
        <ele>174.19999694824</ele>
        <time>2021-09-29T18:13:21.000Z</time>
      </trkpt>
      <trkpt lat="43.45557" lon="1.43321">
        <ele>172.39999389648</ele>
        <time>2021-09-29T18:13:27.000Z</time>
      </trkpt>
      <trkpt lat="43.45549" lon="1.43343">
        <ele>173</ele>
        <time>2021-09-29T18:13:35.000Z</time>
      </trkpt>
      <trkpt lat="43.4555" lon="1.4336">
        <ele>175</ele>
        <time>2021-09-29T18:13:42.000Z</time>
      </trkpt>
      <trkpt lat="43.4555" lon="1.43364">
        <ele>175</ele>
        <time>2021-09-29T18:13:45.000Z</time>
      </trkpt>
      <trkpt lat="43.4555" lon="1.43365">
        <ele>175</ele>
        <time>2021-09-29T18:13:46.000Z</time>
      </trkpt>
      <trkpt lat="43.4555" lon="1.43375">
        <ele>175</ele>
        <time>2021-09-29T18:13:53.000Z</time>
      </trkpt>
      <trkpt lat="43.45558" lon="1.434">
        <ele>175.80000305176</ele>
        <time>2021-09-29T18:14:05.000Z</time>
      </trkpt>
      <trkpt lat="43.45561" lon="1.43409">
        <ele>175.60000610352</ele>
        <time>2021-09-29T18:14:12.000Z</time>
      </trkpt>
      <trkpt lat="43.45559" lon="1.43411">
        <ele>175.19999694824</ele>
        <time>2021-09-29T18:14:14.000Z</time>
      </trkpt>
      <trkpt lat="43.45555" lon="1.43413">
        <ele>174.39999389648</ele>
        <time>2021-09-29T18:14:18.000Z</time>
      </trkpt>
      <trkpt lat="43.4555" lon="1.43412">
        <ele>173.60000610352</ele>
        <time>2021-09-29T18:14:24.000Z</time>
      </trkpt>
      <trkpt lat="43.45539" lon="1.4341">
        <ele>172.39999389648</ele>
        <time>2021-09-29T18:14:33.000Z</time>
      </trkpt>
      <trkpt lat="43.45534" lon="1.43409">
        <ele>171.80000305176</ele>
        <time>2021-09-29T18:14:37.000Z</time>
      </trkpt>
      <trkpt lat="43.45521" lon="1.43408">
        <ele>170.60000610352</ele>
        <time>2021-09-29T18:14:45.000Z</time>
      </trkpt>
      <trkpt lat="43.45504" lon="1.434">
        <ele>170</ele>
        <time>2021-09-29T18:14:53.000Z</time>
      </trkpt>
      <trkpt lat="43.45495" lon="1.43392">
        <ele>169.39999389648</ele>
        <time>2021-09-29T18:14:57.000Z</time>
      </trkpt>
      <trkpt lat="43.45487" lon="1.43387">
        <ele>169</ele>
        <time>2021-09-29T18:15:00.000Z</time>
      </trkpt>
      <trkpt lat="43.4548" lon="1.43381">
        <ele>168.60000610352</ele>
        <time>2021-09-29T18:15:03.000Z</time>
      </trkpt>
      <trkpt lat="43.45475" lon="1.43378">
        <ele>168.39999389648</ele>
        <time>2021-09-29T18:15:05.000Z</time>
      </trkpt>
      <trkpt lat="43.45469" lon="1.43375">
        <ele>168.39999389648</ele>
        <time>2021-09-29T18:15:06.000Z</time>
      </trkpt>
      <trkpt lat="43.45467" lon="1.43374">
        <ele>168.39999389648</ele>
        <time>2021-09-29T18:15:08.000Z</time>
      </trkpt>
      <trkpt lat="43.45455" lon="1.43364">
        <ele>169</ele>
        <time>2021-09-29T18:15:13.000Z</time>
      </trkpt>
      <trkpt lat="43.45451" lon="1.43359">
        <ele>169</ele>
        <time>2021-09-29T18:15:14.000Z</time>
      </trkpt>
      <trkpt lat="43.45451" lon="1.43359">
        <ele>169</ele>
        <time>2021-09-29T18:15:15.000Z</time>
      </trkpt>
      <trkpt lat="43.45449" lon="1.43352">
        <ele>168.60000610352</ele>
        <time>2021-09-29T18:15:17.000Z</time>
      </trkpt>
      <trkpt lat="43.45447" lon="1.43347">
        <ele>168.19999694824</ele>
        <time>2021-09-29T18:15:19.000Z</time>
      </trkpt>
      <trkpt lat="43.45445" lon="1.43344">
        <ele>168.19999694824</ele>
        <time>2021-09-29T18:15:20.000Z</time>
      </trkpt>
      <trkpt lat="43.45444" lon="1.43342">
        <ele>168</ele>
        <time>2021-09-29T18:15:21.000Z</time>
      </trkpt>
      <trkpt lat="43.45441" lon="1.43336">
        <ele>167.80000305176</ele>
        <time>2021-09-29T18:15:23.000Z</time>
      </trkpt>
      <trkpt lat="43.45439" lon="1.43332">
        <ele>167.60000610352</ele>
        <time>2021-09-29T18:15:24.000Z</time>
      </trkpt>
      <trkpt lat="43.45436" lon="1.4333">
        <ele>167.39999389648</ele>
        <time>2021-09-29T18:15:25.000Z</time>
      </trkpt>
      <trkpt lat="43.45434" lon="1.43327">
        <ele>167.19999694824</ele>
        <time>2021-09-29T18:15:26.000Z</time>
      </trkpt>
      <trkpt lat="43.45428" lon="1.43319">
        <ele>167</ele>
        <time>2021-09-29T18:15:29.000Z</time>
      </trkpt>
      <trkpt lat="43.45409" lon="1.43311">
        <ele>167.60000610352</ele>
        <time>2021-09-29T18:15:36.000Z</time>
      </trkpt>
      <trkpt lat="43.45402" lon="1.43309">
        <ele>167.60000610352</ele>
        <time>2021-09-29T18:15:38.000Z</time>
      </trkpt>
      <trkpt lat="43.45391" lon="1.43303">
        <ele>167.80000305176</ele>
        <time>2021-09-29T18:15:42.000Z</time>
      </trkpt>
      <trkpt lat="43.45388" lon="1.43302">
        <ele>167.80000305176</ele>
        <time>2021-09-29T18:15:43.000Z</time>
      </trkpt>
      <trkpt lat="43.45373" lon="1.43292">
        <ele>167.80000305176</ele>
        <time>2021-09-29T18:15:49.000Z</time>
      </trkpt>
      <trkpt lat="43.45368" lon="1.43287">
        <ele>167.80000305176</ele>
        <time>2021-09-29T18:15:51.000Z</time>
      </trkpt>
      <trkpt lat="43.45358" lon="1.43279">
        <ele>167.60000610352</ele>
        <time>2021-09-29T18:15:55.000Z</time>
      </trkpt>
      <trkpt lat="43.45341" lon="1.43265">
        <ele>167.60000610352</ele>
        <time>2021-09-29T18:16:02.000Z</time>
      </trkpt>
      <trkpt lat="43.45325" lon="1.43247">
        <ele>166.39999389648</ele>
        <time>2021-09-29T18:16:09.000Z</time>
      </trkpt>
      <trkpt lat="43.45312" lon="1.43227">
        <ele>164</ele>
        <time>2021-09-29T18:16:16.000Z</time>
      </trkpt>
      <trkpt lat="43.45304" lon="1.43209">
        <ele>161.80000305176</ele>
        <time>2021-09-29T18:16:21.000Z</time>
      </trkpt>
      <trkpt lat="43.45295" lon="1.43189">
        <ele>160</ele>
        <time>2021-09-29T18:16:27.000Z</time>
      </trkpt>
      <trkpt lat="43.4528" lon="1.43171">
        <ele>160</ele>
        <time>2021-09-29T18:16:35.000Z</time>
      </trkpt>
      <trkpt lat="43.45264" lon="1.43153">
        <ele>159.60000610352</ele>
        <time>2021-09-29T18:16:42.000Z</time>
      </trkpt>
      <trkpt lat="43.45248" lon="1.43141">
        <ele>159.19999694824</ele>
        <time>2021-09-29T18:16:48.000Z</time>
      </trkpt>
      <trkpt lat="43.45235" lon="1.43122">
        <ele>159</ele>
        <time>2021-09-29T18:16:54.000Z</time>
      </trkpt>
      <trkpt lat="43.45229" lon="1.43111">
        <ele>158.39999389648</ele>
        <time>2021-09-29T18:16:57.000Z</time>
      </trkpt>
      <trkpt lat="43.45224" lon="1.43095">
        <ele>159.39999389648</ele>
        <time>2021-09-29T18:17:01.000Z</time>
      </trkpt>
      <trkpt lat="43.45214" lon="1.43071">
        <ele>161.19999694824</ele>
        <time>2021-09-29T18:17:08.000Z</time>
      </trkpt>
      <trkpt lat="43.45205" lon="1.43046">
        <ele>163.60000610352</ele>
        <time>2021-09-29T18:17:15.000Z</time>
      </trkpt>
      <trkpt lat="43.45199" lon="1.43022">
        <ele>165.39999389648</ele>
        <time>2021-09-29T18:17:22.000Z</time>
      </trkpt>
      <trkpt lat="43.45192" lon="1.42997">
        <ele>165</ele>
        <time>2021-09-29T18:17:30.000Z</time>
      </trkpt>
      <trkpt lat="43.45184" lon="1.42973">
        <ele>164</ele>
        <time>2021-09-29T18:17:37.000Z</time>
      </trkpt>
      <trkpt lat="43.45181" lon="1.42949">
        <ele>163.19999694824</ele>
        <time>2021-09-29T18:17:43.000Z</time>
      </trkpt>
      <trkpt lat="43.45179" lon="1.42924">
        <ele>161.80000305176</ele>
        <time>2021-09-29T18:17:50.000Z</time>
      </trkpt>
      <trkpt lat="43.45172" lon="1.42898">
        <ele>161.19999694824</ele>
        <time>2021-09-29T18:17:57.000Z</time>
      </trkpt>
      <trkpt lat="43.45166" lon="1.42872">
        <ele>161</ele>
        <time>2021-09-29T18:18:04.000Z</time>
      </trkpt>
      <trkpt lat="43.45158" lon="1.42848">
        <ele>161.60000610352</ele>
        <time>2021-09-29T18:18:11.000Z</time>
      </trkpt>
      <trkpt lat="43.45143" lon="1.42828">
        <ele>162.60000610352</ele>
        <time>2021-09-29T18:18:18.000Z</time>
      </trkpt>
      <trkpt lat="43.45131" lon="1.42807">
        <ele>162.39999389648</ele>
        <time>2021-09-29T18:18:25.000Z</time>
      </trkpt>
      <trkpt lat="43.45115" lon="1.42795">
        <ele>162.60000610352</ele>
        <time>2021-09-29T18:18:32.000Z</time>
      </trkpt>
      <trkpt lat="43.45105" lon="1.42788">
        <ele>162.60000610352</ele>
        <time>2021-09-29T18:18:36.000Z</time>
      </trkpt>
      <trkpt lat="43.45089" lon="1.42773">
        <ele>162.60000610352</ele>
        <time>2021-09-29T18:18:43.000Z</time>
      </trkpt>
      <trkpt lat="43.45074" lon="1.42757">
        <ele>162</ele>
        <time>2021-09-29T18:18:50.000Z</time>
      </trkpt>
      <trkpt lat="43.45063" lon="1.42736">
        <ele>161.39999389648</ele>
        <time>2021-09-29T18:18:57.000Z</time>
      </trkpt>
      <trkpt lat="43.45047" lon="1.42722">
        <ele>160.60000610352</ele>
        <time>2021-09-29T18:19:03.000Z</time>
      </trkpt>
      <trkpt lat="43.45032" lon="1.42708">
        <ele>159.39999389648</ele>
        <time>2021-09-29T18:19:09.000Z</time>
      </trkpt>
      <trkpt lat="43.45017" lon="1.42693">
        <ele>159</ele>
        <time>2021-09-29T18:19:15.000Z</time>
      </trkpt>
      <trkpt lat="43.45" lon="1.42677">
        <ele>159</ele>
        <time>2021-09-29T18:19:22.000Z</time>
      </trkpt>
      <trkpt lat="43.4498" lon="1.42669">
        <ele>159.60000610352</ele>
        <time>2021-09-29T18:19:29.000Z</time>
      </trkpt>
      <trkpt lat="43.44961" lon="1.42662">
        <ele>160.19999694824</ele>
        <time>2021-09-29T18:19:36.000Z</time>
      </trkpt>
      <trkpt lat="43.44943" lon="1.42653">
        <ele>160.39999389648</ele>
        <time>2021-09-29T18:19:43.000Z</time>
      </trkpt>
      <trkpt lat="43.44925" lon="1.42645">
        <ele>160.80000305176</ele>
        <time>2021-09-29T18:19:50.000Z</time>
      </trkpt>
      <trkpt lat="43.44907" lon="1.42639">
        <ele>161.39999389648</ele>
        <time>2021-09-29T18:19:57.000Z</time>
      </trkpt>
      <trkpt lat="43.44888" lon="1.42638">
        <ele>162</ele>
        <time>2021-09-29T18:20:04.000Z</time>
      </trkpt>
      <trkpt lat="43.44869" lon="1.42639">
        <ele>162</ele>
        <time>2021-09-29T18:20:11.000Z</time>
      </trkpt>
      <trkpt lat="43.44847" lon="1.42641">
        <ele>161.39999389648</ele>
        <time>2021-09-29T18:20:18.000Z</time>
      </trkpt>
      <trkpt lat="43.44826" lon="1.42645">
        <ele>161</ele>
        <time>2021-09-29T18:20:25.000Z</time>
      </trkpt>
      <trkpt lat="43.44808" lon="1.42651">
        <ele>161</ele>
        <time>2021-09-29T18:20:31.000Z</time>
      </trkpt>
      <trkpt lat="43.44789" lon="1.42661">
        <ele>161.19999694824</ele>
        <time>2021-09-29T18:20:39.000Z</time>
      </trkpt>
      <trkpt lat="43.44774" lon="1.42676">
        <ele>162</ele>
        <time>2021-09-29T18:20:46.000Z</time>
      </trkpt>
      <trkpt lat="43.44759" lon="1.42695">
        <ele>163.60000610352</ele>
        <time>2021-09-29T18:20:52.000Z</time>
      </trkpt>
      <trkpt lat="43.44744" lon="1.42716">
        <ele>164.19999694824</ele>
        <time>2021-09-29T18:20:58.000Z</time>
      </trkpt>
      <trkpt lat="43.44729" lon="1.42737">
        <ele>163.80000305176</ele>
        <time>2021-09-29T18:21:04.000Z</time>
      </trkpt>
      <trkpt lat="43.44716" lon="1.42755">
        <ele>163.80000305176</ele>
        <time>2021-09-29T18:21:10.000Z</time>
      </trkpt>
      <trkpt lat="43.44701" lon="1.42774">
        <ele>163</ele>
        <time>2021-09-29T18:21:17.000Z</time>
      </trkpt>
      <trkpt lat="43.44686" lon="1.42792">
        <ele>162.60000610352</ele>
        <time>2021-09-29T18:21:24.000Z</time>
      </trkpt>
      <trkpt lat="43.44687" lon="1.42817">
        <ele>163</ele>
        <time>2021-09-29T18:21:31.000Z</time>
      </trkpt>
      <trkpt lat="43.44696" lon="1.42841">
        <ele>162.60000610352</ele>
        <time>2021-09-29T18:21:38.000Z</time>
      </trkpt>
      <trkpt lat="43.44696" lon="1.42847">
        <ele>162.39999389648</ele>
        <time>2021-09-29T18:22:06.000Z</time>
      </trkpt>
      <trkpt lat="43.44696" lon="1.42847">
        <ele>162.39999389648</ele>
        <time>2021-09-29T18:22:11.000Z</time>
      </trkpt>
      <trkpt lat="43.44696" lon="1.42847">
        <ele>162.39999389648</ele>
        <time>2021-09-29T18:22:14.000Z</time>
      </trkpt>
      <trkpt lat="43.44696" lon="1.42847">
        <ele>162.39999389648</ele>
        <time>2021-09-29T18:22:17.000Z</time>
      </trkpt>
      <trkpt lat="43.44696" lon="1.42847">
        <ele>162.39999389648</ele>
        <time>2021-09-29T18:22:25.000Z</time>
      </trkpt>
      <trkpt lat="43.44696" lon="1.42847">
        <ele>162.39999389648</ele>
        <time>2021-09-29T18:22:29.000Z</time>
      </trkpt>
      <trkpt lat="43.44696" lon="1.42848">
        <ele>162.39999389648</ele>
        <time>2021-09-29T18:22:33.000Z</time>
      </trkpt>
      <trkpt lat="43.44696" lon="1.42848">
        <ele>162.39999389648</ele>
        <time>2021-09-29T18:22:37.000Z</time>
      </trkpt>
      <trkpt lat="43.44695" lon="1.42844">
        <ele>162.60000610352</ele>
        <time>2021-09-29T18:22:42.000Z</time>
      </trkpt>
      <trkpt lat="43.44694" lon="1.42842">
        <ele>162.60000610352</ele>
        <time>2021-09-29T18:22:46.000Z</time>
      </trkpt>
      <trkpt lat="43.44694" lon="1.42841">
        <ele>162.60000610352</ele>
        <time>2021-09-29T18:22:50.000Z</time>
      </trkpt>
      <trkpt lat="43.44695" lon="1.42841">
        <ele>162.60000610352</ele>
        <time>2021-09-29T18:22:56.000Z</time>
      </trkpt>
      <trkpt lat="43.44697" lon="1.4284">
        <ele>162.80000305176</ele>
        <time>2021-09-29T18:23:31.000Z</time>
      </trkpt>
      <trkpt lat="43.44699" lon="1.42838">
        <ele>162.80000305176</ele>
        <time>2021-09-29T18:23:39.000Z</time>
      </trkpt>
      <trkpt lat="43.447" lon="1.42838">
        <ele>162.80000305176</ele>
        <time>2021-09-29T18:23:41.000Z</time>
      </trkpt>
      <trkpt lat="43.447" lon="1.42838">
        <ele>162.60000610352</ele>
        <time>2021-09-29T18:23:50.000Z</time>
      </trkpt>
      <trkpt lat="43.44701" lon="1.42838">
        <ele>162.60000610352</ele>
        <time>2021-09-29T18:23:54.000Z</time>
      </trkpt>
      <trkpt lat="43.44701" lon="1.42838">
        <ele>162.60000610352</ele>
        <time>2021-09-29T18:23:55.000Z</time>
      </trkpt>
      <trkpt lat="43.44701" lon="1.42838">
        <ele>162.60000610352</ele>
        <time>2021-09-29T18:23:57.000Z</time>
      </trkpt>
      <trkpt lat="43.44705" lon="1.42858">
        <ele>162</ele>
        <time>2021-09-29T18:24:10.000Z</time>
      </trkpt>
      <trkpt lat="43.44706" lon="1.42865">
        <ele>162</ele>
        <time>2021-09-29T18:24:12.000Z</time>
      </trkpt>
      <trkpt lat="43.44706" lon="1.42868">
        <ele>162</ele>
        <time>2021-09-29T18:24:13.000Z</time>
      </trkpt>
      <trkpt lat="43.44707" lon="1.42872">
        <ele>162</ele>
        <time>2021-09-29T18:24:14.000Z</time>
      </trkpt>
      <trkpt lat="43.44708" lon="1.42879">
        <ele>162</ele>
        <time>2021-09-29T18:24:15.000Z</time>
      </trkpt>
      <trkpt lat="43.44708" lon="1.42879">
        <ele>162</ele>
        <time>2021-09-29T18:24:16.000Z</time>
      </trkpt>
      <trkpt lat="43.4471" lon="1.4289">
        <ele>162</ele>
        <time>2021-09-29T18:24:19.000Z</time>
      </trkpt>
      <trkpt lat="43.44711" lon="1.42906">
        <ele>162</ele>
        <time>2021-09-29T18:24:23.000Z</time>
      </trkpt>
      <trkpt lat="43.44713" lon="1.42917">
        <ele>162.39999389648</ele>
        <time>2021-09-29T18:24:26.000Z</time>
      </trkpt>
      <trkpt lat="43.44714" lon="1.42925">
        <ele>162.60000610352</ele>
        <time>2021-09-29T18:24:27.000Z</time>
      </trkpt>
      <trkpt lat="43.44714" lon="1.42925">
        <ele>162.60000610352</ele>
        <time>2021-09-29T18:24:28.000Z</time>
      </trkpt>
      <trkpt lat="43.44715" lon="1.42933">
        <ele>162.80000305176</ele>
        <time>2021-09-29T18:24:30.000Z</time>
      </trkpt>
      <trkpt lat="43.44715" lon="1.42936">
        <ele>163</ele>
        <time>2021-09-29T18:24:31.000Z</time>
      </trkpt>
      <trkpt lat="43.44715" lon="1.4294">
        <ele>163</ele>
        <time>2021-09-29T18:24:32.000Z</time>
      </trkpt>
      <trkpt lat="43.44716" lon="1.42948">
        <ele>163</ele>
        <time>2021-09-29T18:24:34.000Z</time>
      </trkpt>
      <trkpt lat="43.44716" lon="1.42955">
        <ele>163</ele>
        <time>2021-09-29T18:24:36.000Z</time>
      </trkpt>
      <trkpt lat="43.44717" lon="1.42959">
        <ele>163</ele>
        <time>2021-09-29T18:24:37.000Z</time>
      </trkpt>
      <trkpt lat="43.44717" lon="1.42963">
        <ele>163</ele>
        <time>2021-09-29T18:24:38.000Z</time>
      </trkpt>
      <trkpt lat="43.44717" lon="1.42967">
        <ele>163</ele>
        <time>2021-09-29T18:24:39.000Z</time>
      </trkpt>
      <trkpt lat="43.44721" lon="1.42993">
        <ele>163.80000305176</ele>
        <time>2021-09-29T18:24:46.000Z</time>
      </trkpt>
      <trkpt lat="43.44725" lon="1.43016">
        <ele>163.80000305176</ele>
        <time>2021-09-29T18:24:52.000Z</time>
      </trkpt>
      <trkpt lat="43.44728" lon="1.43034">
        <ele>163.80000305176</ele>
        <time>2021-09-29T18:24:57.000Z</time>
      </trkpt>
      <trkpt lat="43.4473" lon="1.4305">
        <ele>163.60000610352</ele>
        <time>2021-09-29T18:25:01.000Z</time>
      </trkpt>
      <trkpt lat="43.44733" lon="1.43061">
        <ele>163.39999389648</ele>
        <time>2021-09-29T18:25:04.000Z</time>
      </trkpt>
      <trkpt lat="43.44735" lon="1.43076">
        <ele>163</ele>
        <time>2021-09-29T18:25:08.000Z</time>
      </trkpt>
      <trkpt lat="43.44737" lon="1.43091">
        <ele>162.39999389648</ele>
        <time>2021-09-29T18:25:12.000Z</time>
      </trkpt>
      <trkpt lat="43.44738" lon="1.43099">
        <ele>162.19999694824</ele>
        <time>2021-09-29T18:25:14.000Z</time>
      </trkpt>
      <trkpt lat="43.4474" lon="1.43127">
        <ele>161.19999694824</ele>
        <time>2021-09-29T18:25:21.000Z</time>
      </trkpt>
      <trkpt lat="43.44744" lon="1.43151">
        <ele>160</ele>
        <time>2021-09-29T18:25:27.000Z</time>
      </trkpt>
      <trkpt lat="43.44746" lon="1.43167">
        <ele>159.19999694824</ele>
        <time>2021-09-29T18:25:31.000Z</time>
      </trkpt>
      <trkpt lat="43.4475" lon="1.43194">
        <ele>158</ele>
        <time>2021-09-29T18:25:38.000Z</time>
      </trkpt>
      <trkpt lat="43.44752" lon="1.43222">
        <ele>158</ele>
        <time>2021-09-29T18:25:45.000Z</time>
      </trkpt>
      <trkpt lat="43.44755" lon="1.4325">
        <ele>159</ele>
        <time>2021-09-29T18:25:52.000Z</time>
      </trkpt>
      <trkpt lat="43.44759" lon="1.43277">
        <ele>159.60000610352</ele>
        <time>2021-09-29T18:25:59.000Z</time>
      </trkpt>
      <trkpt lat="43.44764" lon="1.43304">
        <ele>159</ele>
        <time>2021-09-29T18:26:06.000Z</time>
      </trkpt>
      <trkpt lat="43.44766" lon="1.43316">
        <ele>159.39999389648</ele>
        <time>2021-09-29T18:26:09.000Z</time>
      </trkpt>
      <trkpt lat="43.44767" lon="1.43324">
        <ele>159.60000610352</ele>
        <time>2021-09-29T18:26:11.000Z</time>
      </trkpt>
      <trkpt lat="43.44771" lon="1.43351">
        <ele>160.60000610352</ele>
        <time>2021-09-29T18:26:18.000Z</time>
      </trkpt>
      <trkpt lat="43.44775" lon="1.43377">
        <ele>162.19999694824</ele>
        <time>2021-09-29T18:26:25.000Z</time>
      </trkpt>
      <trkpt lat="43.44777" lon="1.43392">
        <ele>163.39999389648</ele>
        <time>2021-09-29T18:26:29.000Z</time>
      </trkpt>
      <trkpt lat="43.4478" lon="1.43418">
        <ele>165</ele>
        <time>2021-09-29T18:26:37.000Z</time>
      </trkpt>
      <trkpt lat="43.44775" lon="1.43434">
        <ele>167.60000610352</ele>
        <time>2021-09-29T18:26:47.000Z</time>
      </trkpt>
      <trkpt lat="43.44786" lon="1.43434">
        <ele>166.80000305176</ele>
        <time>2021-09-29T18:26:55.000Z</time>
      </trkpt>
      <trkpt lat="43.44787" lon="1.4344">
        <ele>167.39999389648</ele>
        <time>2021-09-29T18:26:57.000Z</time>
      </trkpt>
      <trkpt lat="43.44786" lon="1.43466">
        <ele>172.60000610352</ele>
        <time>2021-09-29T18:27:09.000Z</time>
      </trkpt>
      <trkpt lat="43.44779" lon="1.43491">
        <ele>176.39999389648</ele>
        <time>2021-09-29T18:27:19.000Z</time>
      </trkpt>
      <trkpt lat="43.44774" lon="1.43513">
        <ele>179.39999389648</ele>
        <time>2021-09-29T18:27:30.000Z</time>
      </trkpt>
      <trkpt lat="43.44768" lon="1.43535">
        <ele>181.39999389648</ele>
        <time>2021-09-29T18:27:41.000Z</time>
      </trkpt>
      <trkpt lat="43.44768" lon="1.43534">
        <ele>181.39999389648</ele>
        <time>2021-09-29T18:27:43.000Z</time>
      </trkpt>
      <trkpt lat="43.44765" lon="1.43532">
        <ele>181.19999694824</ele>
        <time>2021-09-29T18:27:45.000Z</time>
      </trkpt>
      <trkpt lat="43.44755" lon="1.43514">
        <ele>180.19999694824</ele>
        <time>2021-09-29T18:27:53.000Z</time>
      </trkpt>
      <trkpt lat="43.44754" lon="1.43512">
        <ele>180</ele>
        <time>2021-09-29T18:27:54.000Z</time>
      </trkpt>
      <trkpt lat="43.44753" lon="1.43509">
        <ele>179.80000305176</ele>
        <time>2021-09-29T18:27:55.000Z</time>
      </trkpt>
      <trkpt lat="43.44741" lon="1.4349">
        <ele>177.60000610352</ele>
        <time>2021-09-29T18:28:04.000Z</time>
      </trkpt>
      <trkpt lat="43.44723" lon="1.4349">
        <ele>178</ele>
        <time>2021-09-29T18:28:16.000Z</time>
      </trkpt>
      <trkpt lat="43.44706" lon="1.43501">
        <ele>180.80000305176</ele>
        <time>2021-09-29T18:28:28.000Z</time>
      </trkpt>
      <trkpt lat="43.44689" lon="1.43515">
        <ele>185.80000305176</ele>
        <time>2021-09-29T18:28:38.000Z</time>
      </trkpt>
      <trkpt lat="43.44681" lon="1.43522">
        <ele>188.39999389648</ele>
        <time>2021-09-29T18:28:43.000Z</time>
      </trkpt>
      <trkpt lat="43.44664" lon="1.43536">
        <ele>192</ele>
        <time>2021-09-29T18:28:53.000Z</time>
      </trkpt>
      <trkpt lat="43.44646" lon="1.43547">
        <ele>195.80000305176</ele>
        <time>2021-09-29T18:29:03.000Z</time>
      </trkpt>
      <trkpt lat="43.44631" lon="1.43562">
        <ele>200.80000305176</ele>
        <time>2021-09-29T18:29:13.000Z</time>
      </trkpt>
      <trkpt lat="43.44617" lon="1.43577">
        <ele>205</ele>
        <time>2021-09-29T18:29:22.000Z</time>
      </trkpt>
      <trkpt lat="43.446" lon="1.43591">
        <ele>207.60000610352</ele>
        <time>2021-09-29T18:29:31.000Z</time>
      </trkpt>
      <trkpt lat="43.44584" lon="1.43605">
        <ele>210.19999694824</ele>
        <time>2021-09-29T18:29:41.000Z</time>
      </trkpt>
      <trkpt lat="43.44569" lon="1.43617">
        <ele>211.19999694824</ele>
        <time>2021-09-29T18:29:52.000Z</time>
      </trkpt>
      <trkpt lat="43.44562" lon="1.43612">
        <ele>210</ele>
        <time>2021-09-29T18:29:56.000Z</time>
      </trkpt>
      <trkpt lat="43.44548" lon="1.43628">
        <ele>212.60000610352</ele>
        <time>2021-09-29T18:30:05.000Z</time>
      </trkpt>
      <trkpt lat="43.44532" lon="1.43642">
        <ele>214.80000305176</ele>
        <time>2021-09-29T18:30:14.000Z</time>
      </trkpt>
      <trkpt lat="43.44517" lon="1.43655">
        <ele>217.19999694824</ele>
        <time>2021-09-29T18:30:23.000Z</time>
      </trkpt>
      <trkpt lat="43.44503" lon="1.43672">
        <ele>220.19999694824</ele>
        <time>2021-09-29T18:30:32.000Z</time>
      </trkpt>
      <trkpt lat="43.44488" lon="1.43688">
        <ele>224</ele>
        <time>2021-09-29T18:30:41.000Z</time>
      </trkpt>
      <trkpt lat="43.44476" lon="1.43708">
        <ele>228.60000610352</ele>
        <time>2021-09-29T18:30:50.000Z</time>
      </trkpt>
      <trkpt lat="43.44464" lon="1.43729">
        <ele>232.39999389648</ele>
        <time>2021-09-29T18:30:59.000Z</time>
      </trkpt>
      <trkpt lat="43.44452" lon="1.4375">
        <ele>236.39999389648</ele>
        <time>2021-09-29T18:31:08.000Z</time>
      </trkpt>
      <trkpt lat="43.44448" lon="1.43774">
        <ele>239</ele>
        <time>2021-09-29T18:31:16.000Z</time>
      </trkpt>
      <trkpt lat="43.44443" lon="1.43798">
        <ele>241.39999389648</ele>
        <time>2021-09-29T18:31:23.000Z</time>
      </trkpt>
      <trkpt lat="43.44436" lon="1.43822">
        <ele>242.80000305176</ele>
        <time>2021-09-29T18:31:31.000Z</time>
      </trkpt>
      <trkpt lat="43.4443" lon="1.43847">
        <ele>244.39999389648</ele>
        <time>2021-09-29T18:31:39.000Z</time>
      </trkpt>
      <trkpt lat="43.44425" lon="1.43873">
        <ele>246</ele>
        <time>2021-09-29T18:31:47.000Z</time>
      </trkpt>
      <trkpt lat="43.44422" lon="1.4389">
        <ele>246.19999694824</ele>
        <time>2021-09-29T18:31:52.000Z</time>
      </trkpt>
      <trkpt lat="43.44418" lon="1.43907">
        <ele>246</ele>
        <time>2021-09-29T18:31:57.000Z</time>
      </trkpt>
      <trkpt lat="43.44413" lon="1.43935">
        <ele>245.80000305176</ele>
        <time>2021-09-29T18:32:05.000Z</time>
      </trkpt>
      <trkpt lat="43.44409" lon="1.4396">
        <ele>246.39999389648</ele>
        <time>2021-09-29T18:32:11.000Z</time>
      </trkpt>
      <trkpt lat="43.44404" lon="1.43988">
        <ele>246.60000610352</ele>
        <time>2021-09-29T18:32:18.000Z</time>
      </trkpt>
      <trkpt lat="43.44398" lon="1.44012">
        <ele>246</ele>
        <time>2021-09-29T18:32:24.000Z</time>
      </trkpt>
      <trkpt lat="43.4439" lon="1.44039">
        <ele>246</ele>
        <time>2021-09-29T18:32:31.000Z</time>
      </trkpt>
      <trkpt lat="43.44382" lon="1.44065">
        <ele>246</ele>
        <time>2021-09-29T18:32:38.000Z</time>
      </trkpt>
      <trkpt lat="43.44373" lon="1.44091">
        <ele>246.39999389648</ele>
        <time>2021-09-29T18:32:45.000Z</time>
      </trkpt>
      <trkpt lat="43.44369" lon="1.44106">
        <ele>247.39999389648</ele>
        <time>2021-09-29T18:32:49.000Z</time>
      </trkpt>
      <trkpt lat="43.44359" lon="1.44129">
        <ele>248</ele>
        <time>2021-09-29T18:32:56.000Z</time>
      </trkpt>
      <trkpt lat="43.44349" lon="1.44153">
        <ele>248.19999694824</ele>
        <time>2021-09-29T18:33:03.000Z</time>
      </trkpt>
      <trkpt lat="43.4434" lon="1.44173">
        <ele>248.39999389648</ele>
        <time>2021-09-29T18:33:09.000Z</time>
      </trkpt>
      <trkpt lat="43.44331" lon="1.44189">
        <ele>249.60000610352</ele>
        <time>2021-09-29T18:33:18.000Z</time>
      </trkpt>
      <trkpt lat="43.44338" lon="1.44163">
        <ele>248.19999694824</ele>
        <time>2021-09-29T18:33:25.000Z</time>
      </trkpt>
      <trkpt lat="43.44345" lon="1.44145">
        <ele>247.80000305176</ele>
        <time>2021-09-29T18:33:30.000Z</time>
      </trkpt>
      <trkpt lat="43.44349" lon="1.44135">
        <ele>247.39999389648</ele>
        <time>2021-09-29T18:33:33.000Z</time>
      </trkpt>
      <trkpt lat="43.4436" lon="1.44111">
        <ele>248</ele>
        <time>2021-09-29T18:33:40.000Z</time>
      </trkpt>
      <trkpt lat="43.44368" lon="1.44094">
        <ele>246.60000610352</ele>
        <time>2021-09-29T18:33:45.000Z</time>
      </trkpt>
      <trkpt lat="43.44377" lon="1.44069">
        <ele>245.80000305176</ele>
        <time>2021-09-29T18:33:52.000Z</time>
      </trkpt>
      <trkpt lat="43.44383" lon="1.44047">
        <ele>245.60000610352</ele>
        <time>2021-09-29T18:33:59.000Z</time>
      </trkpt>
      <trkpt lat="43.44383" lon="1.44046">
        <ele>245.60000610352</ele>
        <time>2021-09-29T18:34:01.000Z</time>
      </trkpt>
      <trkpt lat="43.44382" lon="1.44051">
        <ele>245.60000610352</ele>
        <time>2021-09-29T18:34:02.000Z</time>
      </trkpt>
      <trkpt lat="43.44379" lon="1.44067">
        <ele>245.80000305176</ele>
        <time>2021-09-29T18:34:08.000Z</time>
      </trkpt>
      <trkpt lat="43.44375" lon="1.4408">
        <ele>246.39999389648</ele>
        <time>2021-09-29T18:34:12.000Z</time>
      </trkpt>
      <trkpt lat="43.44366" lon="1.44104">
        <ele>247.39999389648</ele>
        <time>2021-09-29T18:34:20.000Z</time>
      </trkpt>
      <trkpt lat="43.44362" lon="1.44113">
        <ele>247.80000305176</ele>
        <time>2021-09-29T18:34:23.000Z</time>
      </trkpt>
      <trkpt lat="43.44352" lon="1.44136">
        <ele>247.60000610352</ele>
        <time>2021-09-29T18:34:30.000Z</time>
      </trkpt>
      <trkpt lat="43.44341" lon="1.44158">
        <ele>248</ele>
        <time>2021-09-29T18:34:37.000Z</time>
      </trkpt>
      <trkpt lat="43.44332" lon="1.44181">
        <ele>249.19999694824</ele>
        <time>2021-09-29T18:34:44.000Z</time>
      </trkpt>
      <trkpt lat="43.44324" lon="1.44204">
        <ele>249.80000305176</ele>
        <time>2021-09-29T18:34:51.000Z</time>
      </trkpt>
      <trkpt lat="43.44321" lon="1.44211">
        <ele>250</ele>
        <time>2021-09-29T18:34:53.000Z</time>
      </trkpt>
      <trkpt lat="43.44319" lon="1.44218">
        <ele>250</ele>
        <time>2021-09-29T18:34:55.000Z</time>
      </trkpt>
      <trkpt lat="43.44312" lon="1.44242">
        <ele>249.19999694824</ele>
        <time>2021-09-29T18:35:02.000Z</time>
      </trkpt>
      <trkpt lat="43.44306" lon="1.44269">
        <ele>248.19999694824</ele>
        <time>2021-09-29T18:35:09.000Z</time>
      </trkpt>
      <trkpt lat="43.44301" lon="1.44293">
        <ele>246.60000610352</ele>
        <time>2021-09-29T18:35:15.000Z</time>
      </trkpt>
      <trkpt lat="43.44298" lon="1.4431">
        <ele>245.39999389648</ele>
        <time>2021-09-29T18:35:19.000Z</time>
      </trkpt>
      <trkpt lat="43.44293" lon="1.44334">
        <ele>244.39999389648</ele>
        <time>2021-09-29T18:35:25.000Z</time>
      </trkpt>
      <trkpt lat="43.44289" lon="1.44359">
        <ele>243.60000610352</ele>
        <time>2021-09-29T18:35:31.000Z</time>
      </trkpt>
      <trkpt lat="43.44289" lon="1.44364">
        <ele>243.60000610352</ele>
        <time>2021-09-29T18:35:33.000Z</time>
      </trkpt>
      <trkpt lat="43.44291" lon="1.44367">
        <ele>243.39999389648</ele>
        <time>2021-09-29T18:35:35.000Z</time>
      </trkpt>
      <trkpt lat="43.44297" lon="1.44361">
        <ele>243.19999694824</ele>
        <time>2021-09-29T18:35:42.000Z</time>
      </trkpt>
      <trkpt lat="43.44299" lon="1.44358">
        <ele>243.19999694824</ele>
        <time>2021-09-29T18:36:09.000Z</time>
      </trkpt>
      <trkpt lat="43.44304" lon="1.44353">
        <ele>243.19999694824</ele>
        <time>2021-09-29T18:36:15.000Z</time>
      </trkpt>
      <trkpt lat="43.44319" lon="1.44336">
        <ele>243.19999694824</ele>
        <time>2021-09-29T18:36:23.000Z</time>
      </trkpt>
      <trkpt lat="43.44325" lon="1.44332">
        <ele>243.19999694824</ele>
        <time>2021-09-29T18:36:26.000Z</time>
      </trkpt>
      <trkpt lat="43.44341" lon="1.44323">
        <ele>243.39999389648</ele>
        <time>2021-09-29T18:36:31.000Z</time>
      </trkpt>
      <trkpt lat="43.44348" lon="1.44319">
        <ele>243.19999694824</ele>
        <time>2021-09-29T18:36:33.000Z</time>
      </trkpt>
      <trkpt lat="43.44361" lon="1.44313">
        <ele>243</ele>
        <time>2021-09-29T18:36:37.000Z</time>
      </trkpt>
      <trkpt lat="43.44372" lon="1.44306">
        <ele>243</ele>
        <time>2021-09-29T18:36:41.000Z</time>
      </trkpt>
      <trkpt lat="43.44378" lon="1.44304">
        <ele>242.60000610352</ele>
        <time>2021-09-29T18:36:43.000Z</time>
      </trkpt>
      <trkpt lat="43.44382" lon="1.44303">
        <ele>242.39999389648</ele>
        <time>2021-09-29T18:36:44.000Z</time>
      </trkpt>
      <trkpt lat="43.44385" lon="1.44302">
        <ele>242.19999694824</ele>
        <time>2021-09-29T18:36:45.000Z</time>
      </trkpt>
      <trkpt lat="43.44392" lon="1.443">
        <ele>241.80000305176</ele>
        <time>2021-09-29T18:36:47.000Z</time>
      </trkpt>
      <trkpt lat="43.44412" lon="1.44292">
        <ele>240.39999389648</ele>
        <time>2021-09-29T18:36:53.000Z</time>
      </trkpt>
      <trkpt lat="43.44415" lon="1.4429">
        <ele>240</ele>
        <time>2021-09-29T18:36:54.000Z</time>
      </trkpt>
      <trkpt lat="43.44421" lon="1.44286">
        <ele>239.19999694824</ele>
        <time>2021-09-29T18:36:55.000Z</time>
      </trkpt>
      <trkpt lat="43.44427" lon="1.44282">
        <ele>238</ele>
        <time>2021-09-29T18:36:58.000Z</time>
      </trkpt>
      <trkpt lat="43.44444" lon="1.44273">
        <ele>235</ele>
        <time>2021-09-29T18:37:03.000Z</time>
      </trkpt>
      <trkpt lat="43.44447" lon="1.44271">
        <ele>234.80000305176</ele>
        <time>2021-09-29T18:37:04.000Z</time>
      </trkpt>
      <trkpt lat="43.44457" lon="1.44267">
        <ele>234</ele>
        <time>2021-09-29T18:37:07.000Z</time>
      </trkpt>
      <trkpt lat="43.44476" lon="1.44256">
        <ele>232.19999694824</ele>
        <time>2021-09-29T18:37:13.000Z</time>
      </trkpt>
      <trkpt lat="43.44486" lon="1.44247">
        <ele>230.80000305176</ele>
        <time>2021-09-29T18:37:17.000Z</time>
      </trkpt>
      <trkpt lat="43.44506" lon="1.44246">
        <ele>229.39999389648</ele>
        <time>2021-09-29T18:37:24.000Z</time>
      </trkpt>
      <trkpt lat="43.44523" lon="1.44257">
        <ele>230</ele>
        <time>2021-09-29T18:37:31.000Z</time>
      </trkpt>
      <trkpt lat="43.44541" lon="1.4427">
        <ele>232.39999389648</ele>
        <time>2021-09-29T18:37:39.000Z</time>
      </trkpt>
      <trkpt lat="43.44558" lon="1.44284">
        <ele>234.19999694824</ele>
        <time>2021-09-29T18:37:47.000Z</time>
      </trkpt>
      <trkpt lat="43.44574" lon="1.44297">
        <ele>234</ele>
        <time>2021-09-29T18:37:54.000Z</time>
      </trkpt>
      <trkpt lat="43.44592" lon="1.4431">
        <ele>233.39999389648</ele>
        <time>2021-09-29T18:38:01.000Z</time>
      </trkpt>
      <trkpt lat="43.44608" lon="1.44321">
        <ele>232.19999694824</ele>
        <time>2021-09-29T18:38:07.000Z</time>
      </trkpt>
      <trkpt lat="43.44625" lon="1.44332">
        <ele>230.39999389648</ele>
        <time>2021-09-29T18:38:13.000Z</time>
      </trkpt>
      <trkpt lat="43.44634" lon="1.44338">
        <ele>229.60000610352</ele>
        <time>2021-09-29T18:38:16.000Z</time>
      </trkpt>
      <trkpt lat="43.44653" lon="1.44351">
        <ele>227.39999389648</ele>
        <time>2021-09-29T18:38:23.000Z</time>
      </trkpt>
      <trkpt lat="43.44669" lon="1.44363">
        <ele>226</ele>
        <time>2021-09-29T18:38:29.000Z</time>
      </trkpt>
      <trkpt lat="43.44687" lon="1.44371">
        <ele>225.19999694824</ele>
        <time>2021-09-29T18:38:36.000Z</time>
      </trkpt>
      <trkpt lat="43.44708" lon="1.44367">
        <ele>224.60000610352</ele>
        <time>2021-09-29T18:38:43.000Z</time>
      </trkpt>
      <trkpt lat="43.44728" lon="1.44361">
        <ele>224.19999694824</ele>
        <time>2021-09-29T18:38:50.000Z</time>
      </trkpt>
      <trkpt lat="43.44742" lon="1.44358">
        <ele>223.80000305176</ele>
        <time>2021-09-29T18:38:55.000Z</time>
      </trkpt>
      <trkpt lat="43.44761" lon="1.44352">
        <ele>224.60000610352</ele>
        <time>2021-09-29T18:39:02.000Z</time>
      </trkpt>
      <trkpt lat="43.44779" lon="1.44346">
        <ele>225.60000610352</ele>
        <time>2021-09-29T18:39:09.000Z</time>
      </trkpt>
      <trkpt lat="43.44797" lon="1.44337">
        <ele>227.60000610352</ele>
        <time>2021-09-29T18:39:16.000Z</time>
      </trkpt>
      <trkpt lat="43.44808" lon="1.44331">
        <ele>228.60000610352</ele>
        <time>2021-09-29T18:39:21.000Z</time>
      </trkpt>
      <trkpt lat="43.4482" lon="1.44325">
        <ele>229.60000610352</ele>
        <time>2021-09-29T18:39:26.000Z</time>
      </trkpt>
      <trkpt lat="43.44838" lon="1.44315">
        <ele>230.80000305176</ele>
        <time>2021-09-29T18:39:34.000Z</time>
      </trkpt>
      <trkpt lat="43.44846" lon="1.44311">
        <ele>231.60000610352</ele>
        <time>2021-09-29T18:39:38.000Z</time>
      </trkpt>
      <trkpt lat="43.44858" lon="1.44305">
        <ele>232.80000305176</ele>
        <time>2021-09-29T18:39:44.000Z</time>
      </trkpt>
      <trkpt lat="43.4486" lon="1.44304">
        <ele>233</ele>
        <time>2021-09-29T18:39:46.000Z</time>
      </trkpt>
      <trkpt lat="43.44861" lon="1.44302">
        <ele>233</ele>
        <time>2021-09-29T18:39:48.000Z</time>
      </trkpt>
      <trkpt lat="43.44864" lon="1.44307">
        <ele>233.19999694824</ele>
        <time>2021-09-29T18:39:51.000Z</time>
      </trkpt>
      <trkpt lat="43.44865" lon="1.4432">
        <ele>234.19999694824</ele>
        <time>2021-09-29T18:39:56.000Z</time>
      </trkpt>
      <trkpt lat="43.44865" lon="1.44342">
        <ele>235.39999389648</ele>
        <time>2021-09-29T18:40:03.000Z</time>
      </trkpt>
      <trkpt lat="43.44859" lon="1.44366">
        <ele>236.19999694824</ele>
        <time>2021-09-29T18:40:11.000Z</time>
      </trkpt>
      <trkpt lat="43.44855" lon="1.44382">
        <ele>236.60000610352</ele>
        <time>2021-09-29T18:40:16.000Z</time>
      </trkpt>
      <trkpt lat="43.44846" lon="1.44404">
        <ele>238.19999694824</ele>
        <time>2021-09-29T18:40:23.000Z</time>
      </trkpt>
      <trkpt lat="43.44838" lon="1.44428">
        <ele>240</ele>
        <time>2021-09-29T18:40:31.000Z</time>
      </trkpt>
      <trkpt lat="43.44831" lon="1.44451">
        <ele>241.60000610352</ele>
        <time>2021-09-29T18:40:39.000Z</time>
      </trkpt>
      <trkpt lat="43.44822" lon="1.44474">
        <ele>244</ele>
        <time>2021-09-29T18:40:47.000Z</time>
      </trkpt>
      <trkpt lat="43.44817" lon="1.44485">
        <ele>245.19999694824</ele>
        <time>2021-09-29T18:40:51.000Z</time>
      </trkpt>
      <trkpt lat="43.44814" lon="1.4449">
        <ele>245.80000305176</ele>
        <time>2021-09-29T18:40:53.000Z</time>
      </trkpt>
      <trkpt lat="43.44811" lon="1.44496">
        <ele>246.39999389648</ele>
        <time>2021-09-29T18:40:55.000Z</time>
      </trkpt>
      <trkpt lat="43.44807" lon="1.44505">
        <ele>246.80000305176</ele>
        <time>2021-09-29T18:40:58.000Z</time>
      </trkpt>
      <trkpt lat="43.44798" lon="1.44526">
        <ele>246.60000610352</ele>
        <time>2021-09-29T18:41:05.000Z</time>
      </trkpt>
      <trkpt lat="43.44789" lon="1.44548">
        <ele>245.19999694824</ele>
        <time>2021-09-29T18:41:12.000Z</time>
      </trkpt>
      <trkpt lat="43.44778" lon="1.44571">
        <ele>243.60000610352</ele>
        <time>2021-09-29T18:41:19.000Z</time>
      </trkpt>
      <trkpt lat="43.44767" lon="1.44594">
        <ele>243.19999694824</ele>
        <time>2021-09-29T18:41:26.000Z</time>
      </trkpt>
      <trkpt lat="43.44757" lon="1.44612">
        <ele>243.19999694824</ele>
        <time>2021-09-29T18:41:32.000Z</time>
      </trkpt>
      <trkpt lat="43.44749" lon="1.44636">
        <ele>245</ele>
        <time>2021-09-29T18:41:39.000Z</time>
      </trkpt>
      <trkpt lat="43.44741" lon="1.44662">
        <ele>245.80000305176</ele>
        <time>2021-09-29T18:41:46.000Z</time>
      </trkpt>
      <trkpt lat="43.44739" lon="1.4467">
        <ele>246.19999694824</ele>
        <time>2021-09-29T18:41:48.000Z</time>
      </trkpt>
      <trkpt lat="43.44738" lon="1.44673">
        <ele>246.19999694824</ele>
        <time>2021-09-29T18:41:49.000Z</time>
      </trkpt>
      <trkpt lat="43.44729" lon="1.44698">
        <ele>247</ele>
        <time>2021-09-29T18:41:56.000Z</time>
      </trkpt>
      <trkpt lat="43.44721" lon="1.44724">
        <ele>248</ele>
        <time>2021-09-29T18:42:03.000Z</time>
      </trkpt>
      <trkpt lat="43.44713" lon="1.44748">
        <ele>247.80000305176</ele>
        <time>2021-09-29T18:42:10.000Z</time>
      </trkpt>
      <trkpt lat="43.44707" lon="1.44774">
        <ele>248.80000305176</ele>
        <time>2021-09-29T18:42:17.000Z</time>
      </trkpt>
      <trkpt lat="43.44699" lon="1.44798">
        <ele>249.80000305176</ele>
        <time>2021-09-29T18:42:24.000Z</time>
      </trkpt>
      <trkpt lat="43.44694" lon="1.44812">
        <ele>250.19999694824</ele>
        <time>2021-09-29T18:42:29.000Z</time>
      </trkpt>
      <trkpt lat="43.44693" lon="1.44814">
        <ele>250.39999389648</ele>
        <time>2021-09-29T18:42:30.000Z</time>
      </trkpt>
      <trkpt lat="43.44692" lon="1.44816">
        <ele>250.19999694824</ele>
        <time>2021-09-29T18:42:31.000Z</time>
      </trkpt>
      <trkpt lat="43.4469" lon="1.44823">
        <ele>250.19999694824</ele>
        <time>2021-09-29T18:42:35.000Z</time>
      </trkpt>
      <trkpt lat="43.44673" lon="1.44831">
        <ele>248.80000305176</ele>
        <time>2021-09-29T18:42:47.000Z</time>
      </trkpt>
      <trkpt lat="43.44655" lon="1.44823">
        <ele>245.60000610352</ele>
        <time>2021-09-29T18:42:54.000Z</time>
      </trkpt>
      <trkpt lat="43.44646" lon="1.4482">
        <ele>243.80000305176</ele>
        <time>2021-09-29T18:42:57.000Z</time>
      </trkpt>
      <trkpt lat="43.4464" lon="1.44818">
        <ele>242.39999389648</ele>
        <time>2021-09-29T18:42:59.000Z</time>
      </trkpt>
      <trkpt lat="43.44637" lon="1.44817">
        <ele>241.80000305176</ele>
        <time>2021-09-29T18:43:00.000Z</time>
      </trkpt>
      <trkpt lat="43.44634" lon="1.44816">
        <ele>241.60000610352</ele>
        <time>2021-09-29T18:43:01.000Z</time>
      </trkpt>
      <trkpt lat="43.44631" lon="1.44814">
        <ele>241.19999694824</ele>
        <time>2021-09-29T18:43:02.000Z</time>
      </trkpt>
      <trkpt lat="43.44626" lon="1.44811">
        <ele>240.60000610352</ele>
        <time>2021-09-29T18:43:04.000Z</time>
      </trkpt>
      <trkpt lat="43.44608" lon="1.44803">
        <ele>239</ele>
        <time>2021-09-29T18:43:10.000Z</time>
      </trkpt>
      <trkpt lat="43.4459" lon="1.44794">
        <ele>238</ele>
        <time>2021-09-29T18:43:17.000Z</time>
      </trkpt>
      <trkpt lat="43.44572" lon="1.44785">
        <ele>237.80000305176</ele>
        <time>2021-09-29T18:43:24.000Z</time>
      </trkpt>
      <trkpt lat="43.44554" lon="1.44777">
        <ele>238</ele>
        <time>2021-09-29T18:43:31.000Z</time>
      </trkpt>
      <trkpt lat="43.44536" lon="1.44766">
        <ele>238.60000610352</ele>
        <time>2021-09-29T18:43:38.000Z</time>
      </trkpt>
      <trkpt lat="43.44519" lon="1.44755">
        <ele>239.19999694824</ele>
        <time>2021-09-29T18:43:45.000Z</time>
      </trkpt>
      <trkpt lat="43.44512" lon="1.44747">
        <ele>239.60000610352</ele>
        <time>2021-09-29T18:43:48.000Z</time>
      </trkpt>
      <trkpt lat="43.44498" lon="1.44733">
        <ele>240</ele>
        <time>2021-09-29T18:43:55.000Z</time>
      </trkpt>
      <trkpt lat="43.44481" lon="1.44747">
        <ele>240.19999694824</ele>
        <time>2021-09-29T18:44:03.000Z</time>
      </trkpt>
      <trkpt lat="43.44465" lon="1.44763">
        <ele>240.60000610352</ele>
        <time>2021-09-29T18:44:11.000Z</time>
      </trkpt>
      <trkpt lat="43.4445" lon="1.4478">
        <ele>240.80000305176</ele>
        <time>2021-09-29T18:44:18.000Z</time>
      </trkpt>
      <trkpt lat="43.44434" lon="1.44797">
        <ele>240.80000305176</ele>
        <time>2021-09-29T18:44:25.000Z</time>
      </trkpt>
      <trkpt lat="43.44418" lon="1.44814">
        <ele>241.19999694824</ele>
        <time>2021-09-29T18:44:32.000Z</time>
      </trkpt>
      <trkpt lat="43.44403" lon="1.44832">
        <ele>238.60000610352</ele>
        <time>2021-09-29T18:44:38.000Z</time>
      </trkpt>
      <trkpt lat="43.44392" lon="1.44853">
        <ele>236</ele>
        <time>2021-09-29T18:44:44.000Z</time>
      </trkpt>
      <trkpt lat="43.44385" lon="1.44878">
        <ele>233.39999389648</ele>
        <time>2021-09-29T18:44:50.000Z</time>
      </trkpt>
      <trkpt lat="43.44368" lon="1.44891">
        <ele>232.19999694824</ele>
        <time>2021-09-29T18:44:57.000Z</time>
      </trkpt>
      <trkpt lat="43.44348" lon="1.44888">
        <ele>232</ele>
        <time>2021-09-29T18:45:04.000Z</time>
      </trkpt>
      <trkpt lat="43.44329" lon="1.44886">
        <ele>231.80000305176</ele>
        <time>2021-09-29T18:45:11.000Z</time>
      </trkpt>
      <trkpt lat="43.44311" lon="1.44875">
        <ele>230.60000610352</ele>
        <time>2021-09-29T18:45:17.000Z</time>
      </trkpt>
      <trkpt lat="43.443" lon="1.44853">
        <ele>230.39999389648</ele>
        <time>2021-09-29T18:45:23.000Z</time>
      </trkpt>
      <trkpt lat="43.44297" lon="1.44828">
        <ele>229.60000610352</ele>
        <time>2021-09-29T18:45:29.000Z</time>
      </trkpt>
      <trkpt lat="43.44295" lon="1.44822">
        <ele>229</ele>
        <time>2021-09-29T18:45:30.000Z</time>
      </trkpt>
      <trkpt lat="43.44292" lon="1.44813">
        <ele>228.39999389648</ele>
        <time>2021-09-29T18:45:37.000Z</time>
      </trkpt>
      <trkpt lat="43.44292" lon="1.4481">
        <ele>228.39999389648</ele>
        <time>2021-09-29T18:45:38.000Z</time>
      </trkpt>
      <trkpt lat="43.44292" lon="1.4481">
        <ele>228.39999389648</ele>
        <time>2021-09-29T18:45:39.000Z</time>
      </trkpt>
      <trkpt lat="43.44288" lon="1.4479">
        <ele>226.60000610352</ele>
        <time>2021-09-29T18:45:53.000Z</time>
      </trkpt>
      <trkpt lat="43.44286" lon="1.44768">
        <ele>226.39999389648</ele>
        <time>2021-09-29T18:46:04.000Z</time>
      </trkpt>
      <trkpt lat="43.44278" lon="1.44745">
        <ele>223.60000610352</ele>
        <time>2021-09-29T18:46:13.000Z</time>
      </trkpt>
      <trkpt lat="43.44265" lon="1.44727">
        <ele>220.60000610352</ele>
        <time>2021-09-29T18:46:20.000Z</time>
      </trkpt>
      <trkpt lat="43.44258" lon="1.44704">
        <ele>219.39999389648</ele>
        <time>2021-09-29T18:46:28.000Z</time>
      </trkpt>
      <trkpt lat="43.44258" lon="1.44678">
        <ele>219.60000610352</ele>
        <time>2021-09-29T18:46:37.000Z</time>
      </trkpt>
      <trkpt lat="43.44264" lon="1.44654">
        <ele>221.19999694824</ele>
        <time>2021-09-29T18:46:45.000Z</time>
      </trkpt>
      <trkpt lat="43.44268" lon="1.44631">
        <ele>223.60000610352</ele>
        <time>2021-09-29T18:46:55.000Z</time>
      </trkpt>
      <trkpt lat="43.4427" lon="1.44617">
        <ele>224.60000610352</ele>
        <time>2021-09-29T18:47:02.000Z</time>
      </trkpt>
      <trkpt lat="43.44267" lon="1.44611">
        <ele>224</ele>
        <time>2021-09-29T18:47:05.000Z</time>
      </trkpt>
      <trkpt lat="43.44265" lon="1.44605">
        <ele>223.80000305176</ele>
        <time>2021-09-29T18:47:08.000Z</time>
      </trkpt>
      <trkpt lat="43.44265" lon="1.44603">
        <ele>223.80000305176</ele>
        <time>2021-09-29T18:47:09.000Z</time>
      </trkpt>
      <trkpt lat="43.44264" lon="1.446">
        <ele>223.80000305176</ele>
        <time>2021-09-29T18:47:10.000Z</time>
      </trkpt>
      <trkpt lat="43.44257" lon="1.44575">
        <ele>223.19999694824</ele>
        <time>2021-09-29T18:47:19.000Z</time>
      </trkpt>
      <trkpt lat="43.44257" lon="1.44559">
        <ele>224.80000305176</ele>
        <time>2021-09-29T18:47:24.000Z</time>
      </trkpt>
      <trkpt lat="43.44252" lon="1.44535">
        <ele>226</ele>
        <time>2021-09-29T18:47:33.000Z</time>
      </trkpt>
      <trkpt lat="43.4425" lon="1.44531">
        <ele>226</ele>
        <time>2021-09-29T18:47:34.000Z</time>
      </trkpt>
      <trkpt lat="43.44241" lon="1.44521">
        <ele>225.80000305176</ele>
        <time>2021-09-29T18:47:41.000Z</time>
      </trkpt>
      <trkpt lat="43.44239" lon="1.44521">
        <ele>225.60000610352</ele>
        <time>2021-09-29T18:47:42.000Z</time>
      </trkpt>
      <trkpt lat="43.44221" lon="1.44528">
        <ele>222.60000610352</ele>
        <time>2021-09-29T18:47:55.000Z</time>
      </trkpt>
      <trkpt lat="43.44204" lon="1.44531">
        <ele>221.19999694824</ele>
        <time>2021-09-29T18:48:02.000Z</time>
      </trkpt>
      <trkpt lat="43.44187" lon="1.44541">
        <ele>218.39999389648</ele>
        <time>2021-09-29T18:48:12.000Z</time>
      </trkpt>
      <trkpt lat="43.44184" lon="1.44541">
        <ele>218.39999389648</ele>
        <time>2021-09-29T18:48:13.000Z</time>
      </trkpt>
      <trkpt lat="43.44178" lon="1.4454">
        <ele>218.60000610352</ele>
        <time>2021-09-29T18:48:20.000Z</time>
      </trkpt>
      <trkpt lat="43.44179" lon="1.44548">
        <ele>217.19999694824</ele>
        <time>2021-09-29T18:48:29.000Z</time>
      </trkpt>
      <trkpt lat="43.44176" lon="1.44549">
        <ele>216.80000305176</ele>
        <time>2021-09-29T18:48:48.000Z</time>
      </trkpt>
      <trkpt lat="43.44175" lon="1.44549">
        <ele>217</ele>
        <time>2021-09-29T18:48:53.000Z</time>
      </trkpt>
      <trkpt lat="43.44173" lon="1.44545">
        <ele>217.60000610352</ele>
        <time>2021-09-29T18:48:59.000Z</time>
      </trkpt>
      <trkpt lat="43.44155" lon="1.44546">
        <ele>218</ele>
        <time>2021-09-29T18:49:13.000Z</time>
      </trkpt>
      <trkpt lat="43.44153" lon="1.44549">
        <ele>217.80000305176</ele>
        <time>2021-09-29T18:49:14.000Z</time>
      </trkpt>
      <trkpt lat="43.44153" lon="1.44554">
        <ele>217.39999389648</ele>
        <time>2021-09-29T18:49:17.000Z</time>
      </trkpt>
      <trkpt lat="43.44151" lon="1.4456">
        <ele>216.60000610352</ele>
        <time>2021-09-29T18:49:18.000Z</time>
      </trkpt>
      <trkpt lat="43.44147" lon="1.44564">
        <ele>216</ele>
        <time>2021-09-29T18:49:21.000Z</time>
      </trkpt>
      <trkpt lat="43.44146" lon="1.44566">
        <ele>215.80000305176</ele>
        <time>2021-09-29T18:49:22.000Z</time>
      </trkpt>
      <trkpt lat="43.44143" lon="1.44567">
        <ele>215.60000610352</ele>
        <time>2021-09-29T18:49:23.000Z</time>
      </trkpt>
      <trkpt lat="43.44141" lon="1.44568">
        <ele>215.60000610352</ele>
        <time>2021-09-29T18:49:24.000Z</time>
      </trkpt>
      <trkpt lat="43.44136" lon="1.4457">
        <ele>215.60000610352</ele>
        <time>2021-09-29T18:49:25.000Z</time>
      </trkpt>
      <trkpt lat="43.44136" lon="1.4457">
        <ele>215.60000610352</ele>
        <time>2021-09-29T18:49:26.000Z</time>
      </trkpt>
      <trkpt lat="43.4413" lon="1.44573">
        <ele>215.39999389648</ele>
        <time>2021-09-29T18:49:29.000Z</time>
      </trkpt>
      <trkpt lat="43.44131" lon="1.44578">
        <ele>214.19999694824</ele>
        <time>2021-09-29T18:49:31.000Z</time>
      </trkpt>
      <trkpt lat="43.4413" lon="1.44603">
        <ele>209</ele>
        <time>2021-09-29T18:49:39.000Z</time>
      </trkpt>
      <trkpt lat="43.44132" lon="1.44613">
        <ele>206.60000610352</ele>
        <time>2021-09-29T18:49:44.000Z</time>
      </trkpt>
      <trkpt lat="43.44136" lon="1.44615">
        <ele>206</ele>
        <time>2021-09-29T18:49:46.000Z</time>
      </trkpt>
      <trkpt lat="43.44149" lon="1.44624">
        <ele>203.80000305176</ele>
        <time>2021-09-29T18:49:51.000Z</time>
      </trkpt>
      <trkpt lat="43.44157" lon="1.44636">
        <ele>201.19999694824</ele>
        <time>2021-09-29T18:49:55.000Z</time>
      </trkpt>
      <trkpt lat="43.4416" lon="1.44643">
        <ele>200.19999694824</ele>
        <time>2021-09-29T18:49:56.000Z</time>
      </trkpt>
      <trkpt lat="43.4416" lon="1.44643">
        <ele>200.19999694824</ele>
        <time>2021-09-29T18:49:57.000Z</time>
      </trkpt>
      <trkpt lat="43.44171" lon="1.44663">
        <ele>198.19999694824</ele>
        <time>2021-09-29T18:50:04.000Z</time>
      </trkpt>
      <trkpt lat="43.44182" lon="1.44673">
        <ele>199.60000610352</ele>
        <time>2021-09-29T18:50:10.000Z</time>
      </trkpt>
      <trkpt lat="43.44195" lon="1.44684">
        <ele>202.19999694824</ele>
        <time>2021-09-29T18:50:17.000Z</time>
      </trkpt>
      <trkpt lat="43.44199" lon="1.44694">
        <ele>203.60000610352</ele>
        <time>2021-09-29T18:50:21.000Z</time>
      </trkpt>
      <trkpt lat="43.44194" lon="1.44718">
        <ele>202.39999389648</ele>
        <time>2021-09-29T18:50:29.000Z</time>
      </trkpt>
      <trkpt lat="43.44202" lon="1.44743">
        <ele>203.19999694824</ele>
        <time>2021-09-29T18:50:38.000Z</time>
      </trkpt>
      <trkpt lat="43.44206" lon="1.44753">
        <ele>203.80000305176</ele>
        <time>2021-09-29T18:50:41.000Z</time>
      </trkpt>
      <trkpt lat="43.44206" lon="1.44756">
        <ele>203.60000610352</ele>
        <time>2021-09-29T18:50:42.000Z</time>
      </trkpt>
      <trkpt lat="43.44206" lon="1.4476">
        <ele>203.39999389648</ele>
        <time>2021-09-29T18:50:43.000Z</time>
      </trkpt>
      <trkpt lat="43.44204" lon="1.44767">
        <ele>202.80000305176</ele>
        <time>2021-09-29T18:50:45.000Z</time>
      </trkpt>
      <trkpt lat="43.44191" lon="1.44786">
        <ele>199</ele>
        <time>2021-09-29T18:50:52.000Z</time>
      </trkpt>
      <trkpt lat="43.44187" lon="1.44789">
        <ele>197.80000305176</ele>
        <time>2021-09-29T18:50:55.000Z</time>
      </trkpt>
      <trkpt lat="43.44185" lon="1.44787">
        <ele>197.60000610352</ele>
        <time>2021-09-29T18:50:58.000Z</time>
      </trkpt>
      <trkpt lat="43.44181" lon="1.44788">
        <ele>196.80000305176</ele>
        <time>2021-09-29T18:51:01.000Z</time>
      </trkpt>
      <trkpt lat="43.44175" lon="1.44813">
        <ele>194.19999694824</ele>
        <time>2021-09-29T18:51:10.000Z</time>
      </trkpt>
      <trkpt lat="43.44179" lon="1.4484">
        <ele>193.39999389648</ele>
        <time>2021-09-29T18:51:20.000Z</time>
      </trkpt>
      <trkpt lat="43.44178" lon="1.44843">
        <ele>193</ele>
        <time>2021-09-29T18:51:21.000Z</time>
      </trkpt>
      <trkpt lat="43.44176" lon="1.44869">
        <ele>192.80000305176</ele>
        <time>2021-09-29T18:51:28.000Z</time>
      </trkpt>
      <trkpt lat="43.44177" lon="1.44897">
        <ele>192.39999389648</ele>
        <time>2021-09-29T18:51:35.000Z</time>
      </trkpt>
      <trkpt lat="43.44176" lon="1.44925">
        <ele>191.80000305176</ele>
        <time>2021-09-29T18:51:42.000Z</time>
      </trkpt>
      <trkpt lat="43.44174" lon="1.44936">
        <ele>191.60000610352</ele>
        <time>2021-09-29T18:51:45.000Z</time>
      </trkpt>
      <trkpt lat="43.44171" lon="1.44964">
        <ele>192.39999389648</ele>
        <time>2021-09-29T18:51:53.000Z</time>
      </trkpt>
      <trkpt lat="43.44164" lon="1.44988">
        <ele>192.60000610352</ele>
        <time>2021-09-29T18:51:59.000Z</time>
      </trkpt>
      <trkpt lat="43.44157" lon="1.45013">
        <ele>192</ele>
        <time>2021-09-29T18:52:06.000Z</time>
      </trkpt>
      <trkpt lat="43.4416" lon="1.4504">
        <ele>191.39999389648</ele>
        <time>2021-09-29T18:52:14.000Z</time>
      </trkpt>
      <trkpt lat="43.44156" lon="1.45066">
        <ele>191.80000305176</ele>
        <time>2021-09-29T18:52:22.000Z</time>
      </trkpt>
      <trkpt lat="43.44155" lon="1.4509">
        <ele>193</ele>
        <time>2021-09-29T18:52:28.000Z</time>
      </trkpt>
      <trkpt lat="43.44146" lon="1.45099">
        <ele>194</ele>
        <time>2021-09-29T18:52:52.000Z</time>
      </trkpt>
      <trkpt lat="43.44145" lon="1.45099">
        <ele>194</ele>
        <time>2021-09-29T18:52:58.000Z</time>
      </trkpt>
      <trkpt lat="43.44144" lon="1.45099">
        <ele>194</ele>
        <time>2021-09-29T18:53:01.000Z</time>
      </trkpt>
      <trkpt lat="43.44143" lon="1.451">
        <ele>194</ele>
        <time>2021-09-29T18:53:05.000Z</time>
      </trkpt>
      <trkpt lat="43.44142" lon="1.45101">
        <ele>194.19999694824</ele>
        <time>2021-09-29T18:53:09.000Z</time>
      </trkpt>
      <trkpt lat="43.44141" lon="1.45102">
        <ele>194.39999389648</ele>
        <time>2021-09-29T18:53:12.000Z</time>
      </trkpt>
      <trkpt lat="43.44135" lon="1.45099">
        <ele>194.60000610352</ele>
        <time>2021-09-29T18:53:15.000Z</time>
      </trkpt>
      <trkpt lat="43.44127" lon="1.45092">
        <ele>194.80000305176</ele>
        <time>2021-09-29T18:53:20.000Z</time>
      </trkpt>
      <trkpt lat="43.4412" lon="1.4508">
        <ele>194.80000305176</ele>
        <time>2021-09-29T18:53:26.000Z</time>
      </trkpt>
      <trkpt lat="43.44119" lon="1.45075">
        <ele>194.60000610352</ele>
        <time>2021-09-29T18:53:28.000Z</time>
      </trkpt>
      <trkpt lat="43.4412" lon="1.45068">
        <ele>194.39999389648</ele>
        <time>2021-09-29T18:53:31.000Z</time>
      </trkpt>
      <trkpt lat="43.44121" lon="1.45064">
        <ele>194.19999694824</ele>
        <time>2021-09-29T18:53:33.000Z</time>
      </trkpt>
      <trkpt lat="43.44112" lon="1.45042">
        <ele>194.19999694824</ele>
        <time>2021-09-29T18:53:44.000Z</time>
      </trkpt>
      <trkpt lat="43.4411" lon="1.45038">
        <ele>194.39999389648</ele>
        <time>2021-09-29T18:53:46.000Z</time>
      </trkpt>
      <trkpt lat="43.4411" lon="1.45012">
        <ele>193.39999389648</ele>
        <time>2021-09-29T18:53:53.000Z</time>
      </trkpt>
      <trkpt lat="43.44109" lon="1.45008">
        <ele>193.39999389648</ele>
        <time>2021-09-29T18:53:54.000Z</time>
      </trkpt>
      <trkpt lat="43.44108" lon="1.45002">
        <ele>193.19999694824</ele>
        <time>2021-09-29T18:53:56.000Z</time>
      </trkpt>
      <trkpt lat="43.44105" lon="1.44994">
        <ele>193.39999389648</ele>
        <time>2021-09-29T18:53:59.000Z</time>
      </trkpt>
      <trkpt lat="43.44103" lon="1.44992">
        <ele>193.60000610352</ele>
        <time>2021-09-29T18:54:00.000Z</time>
      </trkpt>
      <trkpt lat="43.44099" lon="1.44991">
        <ele>194.19999694824</ele>
        <time>2021-09-29T18:54:01.000Z</time>
      </trkpt>
      <trkpt lat="43.44099" lon="1.44991">
        <ele>194.19999694824</ele>
        <time>2021-09-29T18:54:02.000Z</time>
      </trkpt>
      <trkpt lat="43.44097" lon="1.44991">
        <ele>194.39999389648</ele>
        <time>2021-09-29T18:54:03.000Z</time>
      </trkpt>
      <trkpt lat="43.44095" lon="1.4499">
        <ele>194.60000610352</ele>
        <time>2021-09-29T18:54:04.000Z</time>
      </trkpt>
      <trkpt lat="43.44092" lon="1.4499">
        <ele>194.80000305176</ele>
        <time>2021-09-29T18:54:05.000Z</time>
      </trkpt>
      <trkpt lat="43.44088" lon="1.4499">
        <ele>195.39999389648</ele>
        <time>2021-09-29T18:54:06.000Z</time>
      </trkpt>
      <trkpt lat="43.44088" lon="1.4499">
        <ele>195.39999389648</ele>
        <time>2021-09-29T18:54:07.000Z</time>
      </trkpt>
      <trkpt lat="43.44084" lon="1.44987">
        <ele>195.80000305176</ele>
        <time>2021-09-29T18:54:09.000Z</time>
      </trkpt>
      <trkpt lat="43.44083" lon="1.44982">
        <ele>195.80000305176</ele>
        <time>2021-09-29T18:54:11.000Z</time>
      </trkpt>
      <trkpt lat="43.44088" lon="1.44957">
        <ele>195.60000610352</ele>
        <time>2021-09-29T18:54:19.000Z</time>
      </trkpt>
      <trkpt lat="43.44091" lon="1.44943">
        <ele>195.39999389648</ele>
        <time>2021-09-29T18:54:23.000Z</time>
      </trkpt>
      <trkpt lat="43.44094" lon="1.44929">
        <ele>194.60000610352</ele>
        <time>2021-09-29T18:54:27.000Z</time>
      </trkpt>
      <trkpt lat="43.44099" lon="1.44905">
        <ele>195.19999694824</ele>
        <time>2021-09-29T18:54:34.000Z</time>
      </trkpt>
      <trkpt lat="43.44103" lon="1.44899">
        <ele>195.39999389648</ele>
        <time>2021-09-29T18:54:37.000Z</time>
      </trkpt>
      <trkpt lat="43.44121" lon="1.44904">
        <ele>194.39999389648</ele>
        <time>2021-09-29T18:54:47.000Z</time>
      </trkpt>
      <trkpt lat="43.44139" lon="1.44906">
        <ele>193.19999694824</ele>
        <time>2021-09-29T18:54:54.000Z</time>
      </trkpt>
      <trkpt lat="43.44153" lon="1.44891">
        <ele>192.80000305176</ele>
        <time>2021-09-29T18:54:59.000Z</time>
      </trkpt>
      <trkpt lat="43.44161" lon="1.44869">
        <ele>192.60000610352</ele>
        <time>2021-09-29T18:55:06.000Z</time>
      </trkpt>
      <trkpt lat="43.44161" lon="1.44866">
        <ele>192.60000610352</ele>
        <time>2021-09-29T18:55:07.000Z</time>
      </trkpt>
      <trkpt lat="43.44151" lon="1.44848">
        <ele>194.39999389648</ele>
        <time>2021-09-29T18:55:14.000Z</time>
      </trkpt>
      <trkpt lat="43.4415" lon="1.44846">
        <ele>194.60000610352</ele>
        <time>2021-09-29T18:55:15.000Z</time>
      </trkpt>
      <trkpt lat="43.4415" lon="1.44841">
        <ele>194.60000610352</ele>
        <time>2021-09-29T18:55:17.000Z</time>
      </trkpt>
      <trkpt lat="43.4415" lon="1.44839">
        <ele>194.60000610352</ele>
        <time>2021-09-29T18:55:18.000Z</time>
      </trkpt>
      <trkpt lat="43.4415" lon="1.44837">
        <ele>194.80000305176</ele>
        <time>2021-09-29T18:55:19.000Z</time>
      </trkpt>
      <trkpt lat="43.44149" lon="1.44833">
        <ele>194.80000305176</ele>
        <time>2021-09-29T18:55:20.000Z</time>
      </trkpt>
      <trkpt lat="43.44149" lon="1.44827">
        <ele>195</ele>
        <time>2021-09-29T18:55:22.000Z</time>
      </trkpt>
      <trkpt lat="43.44147" lon="1.44815">
        <ele>195.19999694824</ele>
        <time>2021-09-29T18:55:27.000Z</time>
      </trkpt>
      <trkpt lat="43.44151" lon="1.44792">
        <ele>194</ele>
        <time>2021-09-29T18:55:35.000Z</time>
      </trkpt>
      <trkpt lat="43.4416" lon="1.44769">
        <ele>194</ele>
        <time>2021-09-29T18:55:41.000Z</time>
      </trkpt>
      <trkpt lat="43.44159" lon="1.44754">
        <ele>194.60000610352</ele>
        <time>2021-09-29T18:55:45.000Z</time>
      </trkpt>
      <trkpt lat="43.44158" lon="1.44751">
        <ele>194.60000610352</ele>
        <time>2021-09-29T18:55:46.000Z</time>
      </trkpt>
      <trkpt lat="43.44145" lon="1.44738">
        <ele>193.80000305176</ele>
        <time>2021-09-29T18:55:55.000Z</time>
      </trkpt>
      <trkpt lat="43.44125" lon="1.44741">
        <ele>194.39999389648</ele>
        <time>2021-09-29T18:56:05.000Z</time>
      </trkpt>
      <trkpt lat="43.44106" lon="1.44744">
        <ele>195.80000305176</ele>
        <time>2021-09-29T18:56:12.000Z</time>
      </trkpt>
      <trkpt lat="43.44087" lon="1.4474">
        <ele>196.39999389648</ele>
        <time>2021-09-29T18:56:18.000Z</time>
      </trkpt>
      <trkpt lat="43.44069" lon="1.44742">
        <ele>196.60000610352</ele>
        <time>2021-09-29T18:56:27.000Z</time>
      </trkpt>
      <trkpt lat="43.44053" lon="1.4476">
        <ele>195.39999389648</ele>
        <time>2021-09-29T18:56:37.000Z</time>
      </trkpt>
      <trkpt lat="43.44038" lon="1.44774">
        <ele>193.80000305176</ele>
        <time>2021-09-29T18:56:44.000Z</time>
      </trkpt>
      <trkpt lat="43.4402" lon="1.44785">
        <ele>191.39999389648</ele>
        <time>2021-09-29T18:56:52.000Z</time>
      </trkpt>
      <trkpt lat="43.44007" lon="1.44803">
        <ele>189.39999389648</ele>
        <time>2021-09-29T18:57:00.000Z</time>
      </trkpt>
      <trkpt lat="43.43997" lon="1.44815">
        <ele>188.39999389648</ele>
        <time>2021-09-29T18:57:05.000Z</time>
      </trkpt>
      <trkpt lat="43.43987" lon="1.44819">
        <ele>188.19999694824</ele>
        <time>2021-09-29T18:57:09.000Z</time>
      </trkpt>
      <trkpt lat="43.43971" lon="1.44835">
        <ele>184.39999389648</ele>
        <time>2021-09-29T18:57:15.000Z</time>
      </trkpt>
      <trkpt lat="43.43956" lon="1.44848">
        <ele>186.39999389648</ele>
        <time>2021-09-29T18:57:22.000Z</time>
      </trkpt>
      <trkpt lat="43.43937" lon="1.44855">
        <ele>185.60000610352</ele>
        <time>2021-09-29T18:57:28.000Z</time>
      </trkpt>
      <trkpt lat="43.43928" lon="1.44856">
        <ele>185.80000305176</ele>
        <time>2021-09-29T18:57:36.000Z</time>
      </trkpt>
      <trkpt lat="43.43918" lon="1.44859">
        <ele>186</ele>
        <time>2021-09-29T18:57:42.000Z</time>
      </trkpt>
      <trkpt lat="43.43912" lon="1.44862">
        <ele>186.19999694824</ele>
        <time>2021-09-29T18:57:47.000Z</time>
      </trkpt>
      <trkpt lat="43.43893" lon="1.44855">
        <ele>186.80000305176</ele>
        <time>2021-09-29T18:57:55.000Z</time>
      </trkpt>
      <trkpt lat="43.43874" lon="1.44843">
        <ele>186.60000610352</ele>
        <time>2021-09-29T18:58:05.000Z</time>
      </trkpt>
      <trkpt lat="43.4386" lon="1.44824">
        <ele>186</ele>
        <time>2021-09-29T18:58:13.000Z</time>
      </trkpt>
      <trkpt lat="43.43848" lon="1.44805">
        <ele>186</ele>
        <time>2021-09-29T18:58:20.000Z</time>
      </trkpt>
      <trkpt lat="43.43841" lon="1.44781">
        <ele>185.60000610352</ele>
        <time>2021-09-29T18:58:27.000Z</time>
      </trkpt>
      <trkpt lat="43.43832" lon="1.44758">
        <ele>185.60000610352</ele>
        <time>2021-09-29T18:58:35.000Z</time>
      </trkpt>
      <trkpt lat="43.43829" lon="1.4474">
        <ele>186.39999389648</ele>
        <time>2021-09-29T18:58:41.000Z</time>
      </trkpt>
      <trkpt lat="43.43822" lon="1.44715">
        <ele>187.19999694824</ele>
        <time>2021-09-29T18:58:51.000Z</time>
      </trkpt>
      <trkpt lat="43.43809" lon="1.44695">
        <ele>187.39999389648</ele>
        <time>2021-09-29T18:59:00.000Z</time>
      </trkpt>
      <trkpt lat="43.43799" lon="1.44677">
        <ele>187.60000610352</ele>
        <time>2021-09-29T18:59:07.000Z</time>
      </trkpt>
      <trkpt lat="43.43798" lon="1.44672">
        <ele>188</ele>
        <time>2021-09-29T18:59:09.000Z</time>
      </trkpt>
      <trkpt lat="43.43798" lon="1.44654">
        <ele>189.80000305176</ele>
        <time>2021-09-29T18:59:16.000Z</time>
      </trkpt>
      <trkpt lat="43.43799" lon="1.44635">
        <ele>192.60000610352</ele>
        <time>2021-09-29T18:59:26.000Z</time>
      </trkpt>
      <trkpt lat="43.43796" lon="1.44631">
        <ele>192.60000610352</ele>
        <time>2021-09-29T18:59:30.000Z</time>
      </trkpt>
      <trkpt lat="43.43788" lon="1.44627">
        <ele>192</ele>
        <time>2021-09-29T18:59:41.000Z</time>
      </trkpt>
      <trkpt lat="43.4377" lon="1.44616">
        <ele>190.39999389648</ele>
        <time>2021-09-29T18:59:56.000Z</time>
      </trkpt>
      <trkpt lat="43.43765" lon="1.44613">
        <ele>190</ele>
        <time>2021-09-29T19:00:00.000Z</time>
      </trkpt>
      <trkpt lat="43.43755" lon="1.4461">
        <ele>189</ele>
        <time>2021-09-29T19:00:04.000Z</time>
      </trkpt>
      <trkpt lat="43.43746" lon="1.44603">
        <ele>187.60000610352</ele>
        <time>2021-09-29T19:00:08.000Z</time>
      </trkpt>
      <trkpt lat="43.43735" lon="1.44593">
        <ele>186.19999694824</ele>
        <time>2021-09-29T19:00:12.000Z</time>
      </trkpt>
      <trkpt lat="43.43728" lon="1.44585">
        <ele>185</ele>
        <time>2021-09-29T19:00:15.000Z</time>
      </trkpt>
      <trkpt lat="43.43726" lon="1.44582">
        <ele>184.80000305176</ele>
        <time>2021-09-29T19:00:16.000Z</time>
      </trkpt>
      <trkpt lat="43.43721" lon="1.44577">
        <ele>184.39999389648</ele>
        <time>2021-09-29T19:00:17.000Z</time>
      </trkpt>
      <trkpt lat="43.43721" lon="1.44577">
        <ele>184.39999389648</ele>
        <time>2021-09-29T19:00:18.000Z</time>
      </trkpt>
      <trkpt lat="43.43709" lon="1.44561">
        <ele>183.80000305176</ele>
        <time>2021-09-29T19:00:25.000Z</time>
      </trkpt>
      <trkpt lat="43.43708" lon="1.4456">
        <ele>183.80000305176</ele>
        <time>2021-09-29T19:00:27.000Z</time>
      </trkpt>
      <trkpt lat="43.43705" lon="1.44556">
        <ele>183.60000610352</ele>
        <time>2021-09-29T19:00:30.000Z</time>
      </trkpt>
      <trkpt lat="43.437" lon="1.44549">
        <ele>183</ele>
        <time>2021-09-29T19:00:33.000Z</time>
      </trkpt>
      <trkpt lat="43.43695" lon="1.44544">
        <ele>182.39999389648</ele>
        <time>2021-09-29T19:00:35.000Z</time>
      </trkpt>
      <trkpt lat="43.43684" lon="1.44532">
        <ele>180.60000610352</ele>
        <time>2021-09-29T19:00:40.000Z</time>
      </trkpt>
      <trkpt lat="43.43682" lon="1.4453">
        <ele>180.19999694824</ele>
        <time>2021-09-29T19:00:41.000Z</time>
      </trkpt>
      <trkpt lat="43.43678" lon="1.44525">
        <ele>179.39999389648</ele>
        <time>2021-09-29T19:00:42.000Z</time>
      </trkpt>
      <trkpt lat="43.43677" lon="1.44519">
        <ele>178.60000610352</ele>
        <time>2021-09-29T19:00:45.000Z</time>
      </trkpt>
      <trkpt lat="43.43678" lon="1.44515">
        <ele>178.60000610352</ele>
        <time>2021-09-29T19:00:46.000Z</time>
      </trkpt>
      <trkpt lat="43.4368" lon="1.44512">
        <ele>178.60000610352</ele>
        <time>2021-09-29T19:00:47.000Z</time>
      </trkpt>
      <trkpt lat="43.43681" lon="1.44509">
        <ele>179</ele>
        <time>2021-09-29T19:00:48.000Z</time>
      </trkpt>
      <trkpt lat="43.4369" lon="1.44488">
        <ele>181.19999694824</ele>
        <time>2021-09-29T19:00:55.000Z</time>
      </trkpt>
      <trkpt lat="43.43692" lon="1.44478">
        <ele>181.80000305176</ele>
        <time>2021-09-29T19:00:58.000Z</time>
      </trkpt>
      <trkpt lat="43.43693" lon="1.44468">
        <ele>182.19999694824</ele>
        <time>2021-09-29T19:01:01.000Z</time>
      </trkpt>
      <trkpt lat="43.43694" lon="1.44465">
        <ele>182.39999389648</ele>
        <time>2021-09-29T19:01:02.000Z</time>
      </trkpt>
      <trkpt lat="43.43696" lon="1.44453">
        <ele>183</ele>
        <time>2021-09-29T19:01:07.000Z</time>
      </trkpt>
      <trkpt lat="43.43699" lon="1.44438">
        <ele>185</ele>
        <time>2021-09-29T19:01:12.000Z</time>
      </trkpt>
      <trkpt lat="43.43701" lon="1.44433">
        <ele>186.39999389648</ele>
        <time>2021-09-29T19:01:14.000Z</time>
      </trkpt>
      <trkpt lat="43.43705" lon="1.44424">
        <ele>188.60000610352</ele>
        <time>2021-09-29T19:01:18.000Z</time>
      </trkpt>
      <trkpt lat="43.4371" lon="1.44411">
        <ele>191.19999694824</ele>
        <time>2021-09-29T19:01:24.000Z</time>
      </trkpt>
      <trkpt lat="43.43712" lon="1.44407">
        <ele>192.19999694824</ele>
        <time>2021-09-29T19:01:25.000Z</time>
      </trkpt>
      <trkpt lat="43.43712" lon="1.44407">
        <ele>192.19999694824</ele>
        <time>2021-09-29T19:01:26.000Z</time>
      </trkpt>
      <trkpt lat="43.43713" lon="1.44405">
        <ele>192.60000610352</ele>
        <time>2021-09-29T19:01:27.000Z</time>
      </trkpt>
      <trkpt lat="43.43718" lon="1.44399">
        <ele>193.80000305176</ele>
        <time>2021-09-29T19:01:31.000Z</time>
      </trkpt>
      <trkpt lat="43.4373" lon="1.44386">
        <ele>198.39999389648</ele>
        <time>2021-09-29T19:01:42.000Z</time>
      </trkpt>
      <trkpt lat="43.43737" lon="1.44361">
        <ele>204.19999694824</ele>
        <time>2021-09-29T19:01:56.000Z</time>
      </trkpt>
      <trkpt lat="43.43741" lon="1.44337">
        <ele>208.60000610352</ele>
        <time>2021-09-29T19:02:08.000Z</time>
      </trkpt>
      <trkpt lat="43.43747" lon="1.44313">
        <ele>211.39999389648</ele>
        <time>2021-09-29T19:02:20.000Z</time>
      </trkpt>
      <trkpt lat="43.43749" lon="1.44307">
        <ele>212.19999694824</ele>
        <time>2021-09-29T19:02:23.000Z</time>
      </trkpt>
      <trkpt lat="43.43751" lon="1.44303">
        <ele>212.60000610352</ele>
        <time>2021-09-29T19:02:25.000Z</time>
      </trkpt>
      <trkpt lat="43.43755" lon="1.4429">
        <ele>214.60000610352</ele>
        <time>2021-09-29T19:02:32.000Z</time>
      </trkpt>
      <trkpt lat="43.43765" lon="1.44269">
        <ele>218.19999694824</ele>
        <time>2021-09-29T19:02:45.000Z</time>
      </trkpt>
      <trkpt lat="43.43776" lon="1.44248">
        <ele>222</ele>
        <time>2021-09-29T19:02:57.000Z</time>
      </trkpt>
      <trkpt lat="43.43785" lon="1.44226">
        <ele>224.80000305176</ele>
        <time>2021-09-29T19:03:08.000Z</time>
      </trkpt>
      <trkpt lat="43.43799" lon="1.44212">
        <ele>228.19999694824</ele>
        <time>2021-09-29T19:03:20.000Z</time>
      </trkpt>
      <trkpt lat="43.43809" lon="1.44207">
        <ele>229.39999389648</ele>
        <time>2021-09-29T19:03:27.000Z</time>
      </trkpt>
      <trkpt lat="43.43819" lon="1.44185">
        <ele>229.80000305176</ele>
        <time>2021-09-29T19:03:38.000Z</time>
      </trkpt>
      <trkpt lat="43.43818" lon="1.44185">
        <ele>229.80000305176</ele>
        <time>2021-09-29T19:03:41.000Z</time>
      </trkpt>
      <trkpt lat="43.43817" lon="1.44187">
        <ele>229.80000305176</ele>
        <time>2021-09-29T19:03:42.000Z</time>
      </trkpt>
      <trkpt lat="43.43817" lon="1.4419">
        <ele>229.80000305176</ele>
        <time>2021-09-29T19:03:43.000Z</time>
      </trkpt>
      <trkpt lat="43.43804" lon="1.4421">
        <ele>229</ele>
        <time>2021-09-29T19:03:51.000Z</time>
      </trkpt>
      <trkpt lat="43.43799" lon="1.44212">
        <ele>228.19999694824</ele>
        <time>2021-09-29T19:03:53.000Z</time>
      </trkpt>
      <trkpt lat="43.43796" lon="1.44213">
        <ele>227.80000305176</ele>
        <time>2021-09-29T19:03:54.000Z</time>
      </trkpt>
      <trkpt lat="43.43784" lon="1.44219">
        <ele>224.80000305176</ele>
        <time>2021-09-29T19:04:02.000Z</time>
      </trkpt>
      <trkpt lat="43.43785" lon="1.44218">
        <ele>225.19999694824</ele>
        <time>2021-09-29T19:04:03.000Z</time>
      </trkpt>
      <trkpt lat="43.43789" lon="1.44215">
        <ele>226.19999694824</ele>
        <time>2021-09-29T19:04:04.000Z</time>
      </trkpt>
      <trkpt lat="43.43789" lon="1.44215">
        <ele>226.19999694824</ele>
        <time>2021-09-29T19:04:05.000Z</time>
      </trkpt>
      <trkpt lat="43.438" lon="1.44212">
        <ele>228.39999389648</ele>
        <time>2021-09-29T19:04:10.000Z</time>
      </trkpt>
      <trkpt lat="43.43814" lon="1.44203">
        <ele>229.80000305176</ele>
        <time>2021-09-29T19:04:17.000Z</time>
      </trkpt>
      <trkpt lat="43.43818" lon="1.44191">
        <ele>230</ele>
        <time>2021-09-29T19:04:21.000Z</time>
      </trkpt>
      <trkpt lat="43.43822" lon="1.4418">
        <ele>229.80000305176</ele>
        <time>2021-09-29T19:04:28.000Z</time>
      </trkpt>
      <trkpt lat="43.43819" lon="1.44176">
        <ele>229.60000610352</ele>
        <time>2021-09-29T19:04:30.000Z</time>
      </trkpt>
      <trkpt lat="43.43814" lon="1.44169">
        <ele>228.80000305176</ele>
        <time>2021-09-29T19:04:36.000Z</time>
      </trkpt>
      <trkpt lat="43.43804" lon="1.44145">
        <ele>227.19999694824</ele>
        <time>2021-09-29T19:04:44.000Z</time>
      </trkpt>
      <trkpt lat="43.43795" lon="1.44122">
        <ele>226.19999694824</ele>
        <time>2021-09-29T19:04:51.000Z</time>
      </trkpt>
      <trkpt lat="43.43792" lon="1.44115">
        <ele>225.80000305176</ele>
        <time>2021-09-29T19:04:53.000Z</time>
      </trkpt>
      <trkpt lat="43.43789" lon="1.44108">
        <ele>225.39999389648</ele>
        <time>2021-09-29T19:04:55.000Z</time>
      </trkpt>
      <trkpt lat="43.43788" lon="1.44105">
        <ele>225.39999389648</ele>
        <time>2021-09-29T19:04:56.000Z</time>
      </trkpt>
      <trkpt lat="43.43786" lon="1.44102">
        <ele>225.39999389648</ele>
        <time>2021-09-29T19:04:57.000Z</time>
      </trkpt>
      <trkpt lat="43.43777" lon="1.44078">
        <ele>225</ele>
        <time>2021-09-29T19:05:04.000Z</time>
      </trkpt>
      <trkpt lat="43.43768" lon="1.44054">
        <ele>224.80000305176</ele>
        <time>2021-09-29T19:05:11.000Z</time>
      </trkpt>
      <trkpt lat="43.43762" lon="1.44037">
        <ele>222.19999694824</ele>
        <time>2021-09-29T19:05:16.000Z</time>
      </trkpt>
      <trkpt lat="43.43759" lon="1.4403">
        <ele>221.39999389648</ele>
        <time>2021-09-29T19:05:18.000Z</time>
      </trkpt>
      <trkpt lat="43.43747" lon="1.44008">
        <ele>215.19999694824</ele>
        <time>2021-09-29T19:05:25.000Z</time>
      </trkpt>
      <trkpt lat="43.43729" lon="1.44004">
        <ele>213</ele>
        <time>2021-09-29T19:05:32.000Z</time>
      </trkpt>
      <trkpt lat="43.43718" lon="1.44008">
        <ele>214</ele>
        <time>2021-09-29T19:05:36.000Z</time>
      </trkpt>
      <trkpt lat="43.43704" lon="1.44014">
        <ele>217</ele>
        <time>2021-09-29T19:05:41.000Z</time>
      </trkpt>
      <trkpt lat="43.43685" lon="1.44019">
        <ele>218.19999694824</ele>
        <time>2021-09-29T19:05:48.000Z</time>
      </trkpt>
      <trkpt lat="43.43671" lon="1.44024">
        <ele>218</ele>
        <time>2021-09-29T19:05:53.000Z</time>
      </trkpt>
      <trkpt lat="43.43662" lon="1.44027">
        <ele>217.39999389648</ele>
        <time>2021-09-29T19:05:56.000Z</time>
      </trkpt>
      <trkpt lat="43.43646" lon="1.44031">
        <ele>213.39999389648</ele>
        <time>2021-09-29T19:06:01.000Z</time>
      </trkpt>
      <trkpt lat="43.43635" lon="1.44034">
        <ele>211</ele>
        <time>2021-09-29T19:06:04.000Z</time>
      </trkpt>
      <trkpt lat="43.43628" lon="1.44035">
        <ele>210</ele>
        <time>2021-09-29T19:06:06.000Z</time>
      </trkpt>
      <trkpt lat="43.43616" lon="1.44038">
        <ele>208.80000305176</ele>
        <time>2021-09-29T19:06:10.000Z</time>
      </trkpt>
      <trkpt lat="43.43598" lon="1.44044">
        <ele>207.80000305176</ele>
        <time>2021-09-29T19:06:16.000Z</time>
      </trkpt>
      <trkpt lat="43.4358" lon="1.44052">
        <ele>206.19999694824</ele>
        <time>2021-09-29T19:06:22.000Z</time>
      </trkpt>
      <trkpt lat="43.43569" lon="1.44058">
        <ele>205</ele>
        <time>2021-09-29T19:06:26.000Z</time>
      </trkpt>
      <trkpt lat="43.43555" lon="1.44067">
        <ele>201</ele>
        <time>2021-09-29T19:06:32.000Z</time>
      </trkpt>
      <trkpt lat="43.43538" lon="1.44058">
        <ele>196.39999389648</ele>
        <time>2021-09-29T19:06:39.000Z</time>
      </trkpt>
      <trkpt lat="43.43518" lon="1.44059">
        <ele>192.80000305176</ele>
        <time>2021-09-29T19:06:47.000Z</time>
      </trkpt>
      <trkpt lat="43.43516" lon="1.44059">
        <ele>192.60000610352</ele>
        <time>2021-09-29T19:06:48.000Z</time>
      </trkpt>
      <trkpt lat="43.435" lon="1.44054">
        <ele>191</ele>
        <time>2021-09-29T19:06:54.000Z</time>
      </trkpt>
      <trkpt lat="43.43482" lon="1.44048">
        <ele>186.80000305176</ele>
        <time>2021-09-29T19:07:00.000Z</time>
      </trkpt>
      <trkpt lat="43.43466" lon="1.44055">
        <ele>184</ele>
        <time>2021-09-29T19:07:06.000Z</time>
      </trkpt>
      <trkpt lat="43.43475" lon="1.44078">
        <ele>186.60000610352</ele>
        <time>2021-09-29T19:07:12.000Z</time>
      </trkpt>
      <trkpt lat="43.43475" lon="1.44083">
        <ele>186.60000610352</ele>
        <time>2021-09-29T19:07:14.000Z</time>
      </trkpt>
      <trkpt lat="43.43456" lon="1.44075">
        <ele>182</ele>
        <time>2021-09-29T19:07:22.000Z</time>
      </trkpt>
      <trkpt lat="43.43449" lon="1.44074">
        <ele>179.80000305176</ele>
        <time>2021-09-29T19:07:26.000Z</time>
      </trkpt>
      <trkpt lat="43.43465" lon="1.4409">
        <ele>183.60000610352</ele>
        <time>2021-09-29T19:07:33.000Z</time>
      </trkpt>
      <trkpt lat="43.43471" lon="1.44101">
        <ele>184</ele>
        <time>2021-09-29T19:07:37.000Z</time>
      </trkpt>
      <trkpt lat="43.43471" lon="1.44106">
        <ele>183.39999389648</ele>
        <time>2021-09-29T19:07:39.000Z</time>
      </trkpt>
      <trkpt lat="43.4347" lon="1.44108">
        <ele>183</ele>
        <time>2021-09-29T19:07:41.000Z</time>
      </trkpt>
      <trkpt lat="43.4347" lon="1.44106">
        <ele>183.19999694824</ele>
        <time>2021-09-29T19:07:44.000Z</time>
      </trkpt>
      <trkpt lat="43.43467" lon="1.44103">
        <ele>182.60000610352</ele>
        <time>2021-09-29T19:07:46.000Z</time>
      </trkpt>
      <trkpt lat="43.43462" lon="1.44101">
        <ele>181.60000610352</ele>
        <time>2021-09-29T19:07:48.000Z</time>
      </trkpt>
      <trkpt lat="43.43444" lon="1.44095">
        <ele>178</ele>
        <time>2021-09-29T19:07:54.000Z</time>
      </trkpt>
      <trkpt lat="43.43431" lon="1.44087">
        <ele>175.19999694824</ele>
        <time>2021-09-29T19:08:01.000Z</time>
      </trkpt>
      <trkpt lat="43.43431" lon="1.44084">
        <ele>175.39999389648</ele>
        <time>2021-09-29T19:08:07.000Z</time>
      </trkpt>
      <trkpt lat="43.43434" lon="1.44077">
        <ele>176</ele>
        <time>2021-09-29T19:08:26.000Z</time>
      </trkpt>
      <trkpt lat="43.43434" lon="1.44077">
        <ele>176</ele>
        <time>2021-09-29T19:08:27.000Z</time>
      </trkpt>
      <trkpt lat="43.43435" lon="1.44071">
        <ele>176.19999694824</ele>
        <time>2021-09-29T19:08:31.000Z</time>
      </trkpt>
      <trkpt lat="43.43436" lon="1.44065">
        <ele>176.39999389648</ele>
        <time>2021-09-29T19:08:35.000Z</time>
      </trkpt>
      <trkpt lat="43.43436" lon="1.44065">
        <ele>176.19999694824</ele>
        <time>2021-09-29T19:08:38.000Z</time>
      </trkpt>
      <trkpt lat="43.43435" lon="1.44065">
        <ele>176</ele>
        <time>2021-09-29T19:08:43.000Z</time>
      </trkpt>
      <trkpt lat="43.43436" lon="1.44059">
        <ele>176.19999694824</ele>
        <time>2021-09-29T19:08:48.000Z</time>
      </trkpt>
      <trkpt lat="43.4344" lon="1.44038">
        <ele>176.19999694824</ele>
        <time>2021-09-29T19:08:54.000Z</time>
      </trkpt>
      <trkpt lat="43.43444" lon="1.44027">
        <ele>176.39999389648</ele>
        <time>2021-09-29T19:08:57.000Z</time>
      </trkpt>
      <trkpt lat="43.43453" lon="1.4401">
        <ele>175.80000305176</ele>
        <time>2021-09-29T19:09:05.000Z</time>
      </trkpt>
      <trkpt lat="43.43452" lon="1.44009">
        <ele>175.60000610352</ele>
        <time>2021-09-29T19:09:06.000Z</time>
      </trkpt>
      <trkpt lat="43.43452" lon="1.44008">
        <ele>175.39999389648</ele>
        <time>2021-09-29T19:09:08.000Z</time>
      </trkpt>
      <trkpt lat="43.4345" lon="1.44004">
        <ele>174.19999694824</ele>
        <time>2021-09-29T19:09:12.000Z</time>
      </trkpt>
      <trkpt lat="43.43446" lon="1.43999">
        <ele>172.60000610352</ele>
        <time>2021-09-29T19:09:15.000Z</time>
      </trkpt>
      <trkpt lat="43.43435" lon="1.44022">
        <ele>174</ele>
        <time>2021-09-29T19:09:22.000Z</time>
      </trkpt>
      <trkpt lat="43.43432" lon="1.44026">
        <ele>173.80000305176</ele>
        <time>2021-09-29T19:09:24.000Z</time>
      </trkpt>
      <trkpt lat="43.43422" lon="1.44024">
        <ele>171.39999389648</ele>
        <time>2021-09-29T19:09:28.000Z</time>
      </trkpt>
    </trkseg>
  </trk>
</gpx>